<?xml version="1.0" encoding="UTF-8" standalone="no" ?>
<gpx xmlns="http://www.topografix.com/GPX/1/1" xmlns:xsi="http://www.w3.org/2001/XMLSchema-instance" xsi:schemaLocation="http://www.topografix.com/GPX/1/1 http://www.topografix.com/GPX/1/1/gpx.xsd" version="1.1" creator="VisuGPX - https://www.visugpx.com">
  <metadata>
    <name>Châtenoy- Ormesson Boucle 12.5 km </name>
    <desc><![CDATA[Parcours de la 10ème édition des chemins de lune - Décembre 2017
Parcours nocturne
Thème : Le moyen age
Près de 2000 participants à cette édition !]]></desc>
  </metadata>
  <trk>
    <name><![CDATA[Châtenoy- Ormesson Boucle 12.5 km _1]]></name>
    <trkseg>
      <trkpt lat="48.23346" lon="2.62565">
        <ele>116.8</ele>
        <time>2017-12-16T16:33:59Z</time>
      </trkpt>
      <trkpt lat="48.23346" lon="2.62565">
        <ele>187.062</ele>
        <time>2017-12-16T16:34:02Z</time>
      </trkpt>
      <trkpt lat="48.23346" lon="2.62565">
        <ele>116.8</ele>
        <time>2017-12-16T16:35:37Z</time>
      </trkpt>
      <trkpt lat="48.23346" lon="2.62565">
        <ele>116.8</ele>
        <time>2017-12-16T16:35:44Z</time>
      </trkpt>
      <trkpt lat="48.23365" lon="2.62559">
        <ele>160.314</ele>
        <time>2017-12-16T16:35:45Z</time>
      </trkpt>
      <trkpt lat="48.23365" lon="2.62559">
        <ele>117</ele>
        <time>2017-12-16T16:38:05Z</time>
      </trkpt>
      <trkpt lat="48.23365" lon="2.62559">
        <ele>117</ele>
        <time>2017-12-16T16:38:11Z</time>
      </trkpt>
      <trkpt lat="48.23369" lon="2.62566">
        <ele>160.781</ele>
        <time>2017-12-16T16:38:12Z</time>
      </trkpt>
      <trkpt lat="48.23384" lon="2.62555">
        <ele>158.616</ele>
        <time>2017-12-16T16:43:36Z</time>
      </trkpt>
      <trkpt lat="48.23404" lon="2.62548">
        <ele>158.645</ele>
        <time>2017-12-16T16:43:48Z</time>
      </trkpt>
      <trkpt lat="48.23415" lon="2.62546">
        <ele>159.357</ele>
        <time>2017-12-16T16:43:58Z</time>
      </trkpt>
      <trkpt lat="48.2344" lon="2.62552">
        <ele>160.81</ele>
        <time>2017-12-16T16:44:14Z</time>
      </trkpt>
      <trkpt lat="48.23461" lon="2.62546">
        <ele>162.204</ele>
        <time>2017-12-16T16:44:31Z</time>
      </trkpt>
      <trkpt lat="48.23485" lon="2.62542">
        <ele>162.966</ele>
        <time>2017-12-16T16:44:46Z</time>
      </trkpt>
      <trkpt lat="48.23499" lon="2.62539">
        <ele>163.342</ele>
        <time>2017-12-16T16:44:56Z</time>
      </trkpt>
      <trkpt lat="48.23519" lon="2.62533">
        <ele>163.736</ele>
        <time>2017-12-16T16:45:12Z</time>
      </trkpt>
      <trkpt lat="48.23537" lon="2.62528">
        <ele>163.86</ele>
        <time>2017-12-16T16:45:23Z</time>
      </trkpt>
      <trkpt lat="48.23555" lon="2.62523">
        <ele>163.879</ele>
        <time>2017-12-16T16:45:35Z</time>
      </trkpt>
      <trkpt lat="48.23566" lon="2.62521">
        <ele>163.878</ele>
        <time>2017-12-16T16:45:43Z</time>
      </trkpt>
      <trkpt lat="48.23583" lon="2.62514">
        <ele>163.802</ele>
        <time>2017-12-16T16:45:56Z</time>
      </trkpt>
      <trkpt lat="48.23602" lon="2.62508">
        <ele>163.664</ele>
        <time>2017-12-16T16:46:10Z</time>
      </trkpt>
      <trkpt lat="48.2362" lon="2.62501">
        <ele>163.53</ele>
        <time>2017-12-16T16:46:27Z</time>
      </trkpt>
      <trkpt lat="48.23641" lon="2.62498">
        <ele>163.449</ele>
        <time>2017-12-16T16:46:44Z</time>
      </trkpt>
      <trkpt lat="48.23659" lon="2.62502">
        <ele>163.374</ele>
        <time>2017-12-16T16:47:03Z</time>
      </trkpt>
      <trkpt lat="48.23675" lon="2.62506">
        <ele>163.31</ele>
        <time>2017-12-16T16:47:17Z</time>
      </trkpt>
      <trkpt lat="48.23691" lon="2.6251">
        <ele>163.24</ele>
        <time>2017-12-16T16:47:31Z</time>
      </trkpt>
      <trkpt lat="48.23711" lon="2.62517">
        <ele>163.151</ele>
        <time>2017-12-16T16:47:47Z</time>
      </trkpt>
      <trkpt lat="48.23729" lon="2.62519">
        <ele>163.121</ele>
        <time>2017-12-16T16:47:59Z</time>
      </trkpt>
      <trkpt lat="48.23745" lon="2.62524">
        <ele>163.067</ele>
        <time>2017-12-16T16:48:16Z</time>
      </trkpt>
      <trkpt lat="48.23768" lon="2.62529">
        <ele>162.955</ele>
        <time>2017-12-16T16:48:35Z</time>
      </trkpt>
      <trkpt lat="48.23789" lon="2.62534">
        <ele>162.81</ele>
        <time>2017-12-16T16:48:51Z</time>
      </trkpt>
      <trkpt lat="48.23805" lon="2.62537">
        <ele>162.682</ele>
        <time>2017-12-16T16:49:03Z</time>
      </trkpt>
      <trkpt lat="48.23827" lon="2.62543">
        <ele>162.508</ele>
        <time>2017-12-16T16:49:18Z</time>
      </trkpt>
      <trkpt lat="48.23838" lon="2.62546">
        <ele>162.414</ele>
        <time>2017-12-16T16:49:26Z</time>
      </trkpt>
      <trkpt lat="48.23857" lon="2.62553">
        <ele>162.255</ele>
        <time>2017-12-16T16:49:40Z</time>
      </trkpt>
      <trkpt lat="48.23875" lon="2.62556">
        <ele>162.112</ele>
        <time>2017-12-16T16:49:52Z</time>
      </trkpt>
      <trkpt lat="48.23894" lon="2.62561">
        <ele>161.942</ele>
        <time>2017-12-16T16:50:04Z</time>
      </trkpt>
      <trkpt lat="48.23906" lon="2.62563">
        <ele>161.836</ele>
        <time>2017-12-16T16:50:11Z</time>
      </trkpt>
      <trkpt lat="48.23918" lon="2.62565">
        <ele>161.715</ele>
        <time>2017-12-16T16:50:19Z</time>
      </trkpt>
      <trkpt lat="48.23929" lon="2.62568">
        <ele>161.579</ele>
        <time>2017-12-16T16:50:28Z</time>
      </trkpt>
      <trkpt lat="48.23942" lon="2.62571">
        <ele>161.385</ele>
        <time>2017-12-16T16:50:40Z</time>
      </trkpt>
      <trkpt lat="48.23959" lon="2.62575">
        <ele>161.16</ele>
        <time>2017-12-16T16:50:54Z</time>
      </trkpt>
      <trkpt lat="48.2398" lon="2.62578">
        <ele>160.903</ele>
        <time>2017-12-16T16:51:11Z</time>
      </trkpt>
      <trkpt lat="48.23995" lon="2.62581">
        <ele>160.732</ele>
        <time>2017-12-16T16:51:23Z</time>
      </trkpt>
      <trkpt lat="48.24006" lon="2.62583">
        <ele>160.603</ele>
        <time>2017-12-16T16:51:32Z</time>
      </trkpt>
      <trkpt lat="48.2402" lon="2.62587">
        <ele>160.438</ele>
        <time>2017-12-16T16:51:43Z</time>
      </trkpt>
      <trkpt lat="48.24046" lon="2.62591">
        <ele>160.277</ele>
        <time>2017-12-16T16:51:58Z</time>
      </trkpt>
      <trkpt lat="48.24049" lon="2.62592">
        <ele>160.253</ele>
        <time>2017-12-16T16:52:01Z</time>
      </trkpt>
      <trkpt lat="48.24049" lon="2.62592">
        <ele>109.2</ele>
        <time>2017-12-16T16:52:08Z</time>
      </trkpt>
      <trkpt lat="48.24049" lon="2.62592">
        <ele>109.2</ele>
        <time>2017-12-16T16:52:13Z</time>
      </trkpt>
      <trkpt lat="48.24053" lon="2.62594">
        <ele>160.21</ele>
        <time>2017-12-16T16:52:13Z</time>
      </trkpt>
      <trkpt lat="48.24066" lon="2.62598">
        <ele>160.135</ele>
        <time>2017-12-16T16:52:24Z</time>
      </trkpt>
      <trkpt lat="48.24075" lon="2.626">
        <ele>160.086</ele>
        <time>2017-12-16T16:52:30Z</time>
      </trkpt>
      <trkpt lat="48.24086" lon="2.62601">
        <ele>160.008</ele>
        <time>2017-12-16T16:52:38Z</time>
      </trkpt>
      <trkpt lat="48.24105" lon="2.62605">
        <ele>159.87</ele>
        <time>2017-12-16T16:52:51Z</time>
      </trkpt>
      <trkpt lat="48.24119" lon="2.62607">
        <ele>159.766</ele>
        <time>2017-12-16T16:53:00Z</time>
      </trkpt>
      <trkpt lat="48.24135" lon="2.62609">
        <ele>159.629</ele>
        <time>2017-12-16T16:53:12Z</time>
      </trkpt>
      <trkpt lat="48.24153" lon="2.62612">
        <ele>159.492</ele>
        <time>2017-12-16T16:53:24Z</time>
      </trkpt>
      <trkpt lat="48.24169" lon="2.62617">
        <ele>159.344</ele>
        <time>2017-12-16T16:53:37Z</time>
      </trkpt>
      <trkpt lat="48.24187" lon="2.62619">
        <ele>159.19</ele>
        <time>2017-12-16T16:53:50Z</time>
      </trkpt>
      <trkpt lat="48.24198" lon="2.62622">
        <ele>159.094</ele>
        <time>2017-12-16T16:53:58Z</time>
      </trkpt>
      <trkpt lat="48.24217" lon="2.62629">
        <ele>158.935</ele>
        <time>2017-12-16T16:54:12Z</time>
      </trkpt>
      <trkpt lat="48.24243" lon="2.62638">
        <ele>158.773</ele>
        <time>2017-12-16T16:54:28Z</time>
      </trkpt>
      <trkpt lat="48.2425" lon="2.6264">
        <ele>158.718</ele>
        <time>2017-12-16T16:54:34Z</time>
      </trkpt>
      <trkpt lat="48.24278" lon="2.62644">
        <ele>158.587</ele>
        <time>2017-12-16T16:54:50Z</time>
      </trkpt>
      <trkpt lat="48.24287" lon="2.62646">
        <ele>158.54</ele>
        <time>2017-12-16T16:54:56Z</time>
      </trkpt>
      <trkpt lat="48.2431" lon="2.62652">
        <ele>158.447</ele>
        <time>2017-12-16T16:55:09Z</time>
      </trkpt>
      <trkpt lat="48.24325" lon="2.62654">
        <ele>158.364</ele>
        <time>2017-12-16T16:55:19Z</time>
      </trkpt>
      <trkpt lat="48.24344" lon="2.62648">
        <ele>158.261</ele>
        <time>2017-12-16T16:55:31Z</time>
      </trkpt>
      <trkpt lat="48.24364" lon="2.6264">
        <ele>158.138</ele>
        <time>2017-12-16T16:55:44Z</time>
      </trkpt>
      <trkpt lat="48.24375" lon="2.62636">
        <ele>158.051</ele>
        <time>2017-12-16T16:55:52Z</time>
      </trkpt>
      <trkpt lat="48.24387" lon="2.6263">
        <ele>157.961</ele>
        <time>2017-12-16T16:56:00Z</time>
      </trkpt>
      <trkpt lat="48.244" lon="2.62625">
        <ele>157.868</ele>
        <time>2017-12-16T16:56:08Z</time>
      </trkpt>
      <trkpt lat="48.2441" lon="2.6262">
        <ele>157.798</ele>
        <time>2017-12-16T16:56:14Z</time>
      </trkpt>
      <trkpt lat="48.24426" lon="2.62611">
        <ele>157.665</ele>
        <time>2017-12-16T16:56:27Z</time>
      </trkpt>
      <trkpt lat="48.24453" lon="2.626">
        <ele>157.483</ele>
        <time>2017-12-16T16:56:45Z</time>
      </trkpt>
      <trkpt lat="48.2447" lon="2.62591">
        <ele>157.364</ele>
        <time>2017-12-16T16:56:57Z</time>
      </trkpt>
      <trkpt lat="48.2448" lon="2.62586">
        <ele>157.289</ele>
        <time>2017-12-16T16:57:05Z</time>
      </trkpt>
      <trkpt lat="48.24499" lon="2.62578">
        <ele>157.154</ele>
        <time>2017-12-16T16:57:19Z</time>
      </trkpt>
      <trkpt lat="48.24509" lon="2.62572">
        <ele>157.079</ele>
        <time>2017-12-16T16:57:26Z</time>
      </trkpt>
      <trkpt lat="48.24521" lon="2.62566">
        <ele>156.986</ele>
        <time>2017-12-16T16:57:35Z</time>
      </trkpt>
      <trkpt lat="48.24545" lon="2.62553">
        <ele>156.811</ele>
        <time>2017-12-16T16:57:51Z</time>
      </trkpt>
      <trkpt lat="48.24564" lon="2.62543">
        <ele>156.671</ele>
        <time>2017-12-16T16:58:04Z</time>
      </trkpt>
      <trkpt lat="48.24575" lon="2.62538">
        <ele>156.582</ele>
        <time>2017-12-16T16:58:12Z</time>
      </trkpt>
      <trkpt lat="48.24599" lon="2.62528">
        <ele>156.425</ele>
        <time>2017-12-16T16:58:27Z</time>
      </trkpt>
      <trkpt lat="48.24613" lon="2.62521">
        <ele>156.345</ele>
        <time>2017-12-16T16:58:35Z</time>
      </trkpt>
      <trkpt lat="48.24627" lon="2.62513">
        <ele>156.233</ele>
        <time>2017-12-16T16:58:46Z</time>
      </trkpt>
      <trkpt lat="48.24639" lon="2.62506">
        <ele>156.122</ele>
        <time>2017-12-16T16:58:56Z</time>
      </trkpt>
      <trkpt lat="48.2467" lon="2.62495">
        <ele>155.931</ele>
        <time>2017-12-16T16:59:13Z</time>
      </trkpt>
      <trkpt lat="48.24685" lon="2.62489">
        <ele>155.81</ele>
        <time>2017-12-16T16:59:24Z</time>
      </trkpt>
      <trkpt lat="48.24707" lon="2.6248">
        <ele>155.636</ele>
        <time>2017-12-16T16:59:39Z</time>
      </trkpt>
      <trkpt lat="48.2472" lon="2.62473">
        <ele>155.55</ele>
        <time>2017-12-16T16:59:47Z</time>
      </trkpt>
      <trkpt lat="48.2473" lon="2.62463">
        <ele>155.474</ele>
        <time>2017-12-16T16:59:54Z</time>
      </trkpt>
      <trkpt lat="48.24743" lon="2.6245">
        <ele>155.364</ele>
        <time>2017-12-16T17:00:04Z</time>
      </trkpt>
      <trkpt lat="48.24757" lon="2.62431">
        <ele>155.217</ele>
        <time>2017-12-16T17:00:17Z</time>
      </trkpt>
      <trkpt lat="48.24777" lon="2.62412">
        <ele>155.021</ele>
        <time>2017-12-16T17:00:33Z</time>
      </trkpt>
      <trkpt lat="48.24789" lon="2.62402">
        <ele>154.924</ele>
        <time>2017-12-16T17:00:41Z</time>
      </trkpt>
      <trkpt lat="48.24802" lon="2.6239">
        <ele>154.764</ele>
        <time>2017-12-16T17:00:54Z</time>
      </trkpt>
      <trkpt lat="48.24822" lon="2.62381">
        <ele>154.51</ele>
        <time>2017-12-16T17:01:13Z</time>
      </trkpt>
      <trkpt lat="48.24827" lon="2.62405">
        <ele>154.319</ele>
        <time>2017-12-16T17:01:27Z</time>
      </trkpt>
      <trkpt lat="48.24831" lon="2.6243">
        <ele>154.16</ele>
        <time>2017-12-16T17:01:38Z</time>
      </trkpt>
      <trkpt lat="48.24837" lon="2.62455">
        <ele>153.984</ele>
        <time>2017-12-16T17:01:50Z</time>
      </trkpt>
      <trkpt lat="48.2484" lon="2.62469">
        <ele>153.886</ele>
        <time>2017-12-16T17:01:57Z</time>
      </trkpt>
      <trkpt lat="48.24846" lon="2.6249">
        <ele>153.747</ele>
        <time>2017-12-16T17:02:07Z</time>
      </trkpt>
      <trkpt lat="48.24851" lon="2.62507">
        <ele>153.632</ele>
        <time>2017-12-16T17:02:15Z</time>
      </trkpt>
      <trkpt lat="48.24858" lon="2.62536">
        <ele>153.45</ele>
        <time>2017-12-16T17:02:28Z</time>
      </trkpt>
      <trkpt lat="48.24862" lon="2.62558">
        <ele>153.304</ele>
        <time>2017-12-16T17:02:38Z</time>
      </trkpt>
      <trkpt lat="48.24868" lon="2.6258">
        <ele>153.147</ele>
        <time>2017-12-16T17:02:49Z</time>
      </trkpt>
      <trkpt lat="48.24876" lon="2.6261">
        <ele>152.976</ele>
        <time>2017-12-16T17:03:02Z</time>
      </trkpt>
      <trkpt lat="48.24877" lon="2.62641">
        <ele>152.775</ele>
        <time>2017-12-16T17:03:16Z</time>
      </trkpt>
      <trkpt lat="48.2488" lon="2.62663">
        <ele>152.584</ele>
        <time>2017-12-16T17:03:29Z</time>
      </trkpt>
      <trkpt lat="48.24878" lon="2.62696">
        <ele>152.321</ele>
        <time>2017-12-16T17:03:47Z</time>
      </trkpt>
      <trkpt lat="48.24871" lon="2.62729">
        <ele>152.142</ele>
        <time>2017-12-16T17:03:59Z</time>
      </trkpt>
      <trkpt lat="48.2487" lon="2.62745">
        <ele>152.069</ele>
        <time>2017-12-16T17:04:04Z</time>
      </trkpt>
      <trkpt lat="48.2487" lon="2.62745">
        <ele>97.1</ele>
        <time>2017-12-16T17:04:09Z</time>
      </trkpt>
      <trkpt lat="48.2487" lon="2.62745">
        <ele>97.1</ele>
        <time>2017-12-16T17:04:14Z</time>
      </trkpt>
      <trkpt lat="48.24862" lon="2.62768">
        <ele>151.947</ele>
        <time>2017-12-16T17:04:14Z</time>
      </trkpt>
      <trkpt lat="48.24862" lon="2.62768">
        <ele>151.947</ele>
        <time>2017-12-16T17:04:19Z</time>
      </trkpt>
      <trkpt lat="48.24862" lon="2.62768">
        <ele>96.4</ele>
        <time>2017-12-16T17:04:19Z</time>
      </trkpt>
      <trkpt lat="48.24862" lon="2.62768">
        <ele>96.4</ele>
        <time>2017-12-16T17:04:43Z</time>
      </trkpt>
      <trkpt lat="48.24859" lon="2.62805">
        <ele>151.674</ele>
        <time>2017-12-16T17:04:43Z</time>
      </trkpt>
      <trkpt lat="48.24857" lon="2.62808">
        <ele>151.66</ele>
        <time>2017-12-16T17:04:45Z</time>
      </trkpt>
      <trkpt lat="48.24857" lon="2.62808">
        <ele>95.6</ele>
        <time>2017-12-16T17:04:51Z</time>
      </trkpt>
      <trkpt lat="48.24857" lon="2.62808">
        <ele>95.6</ele>
        <time>2017-12-16T17:04:54Z</time>
      </trkpt>
      <trkpt lat="48.24853" lon="2.62813">
        <ele>151.568</ele>
        <time>2017-12-16T17:04:54Z</time>
      </trkpt>
      <trkpt lat="48.24824" lon="2.62866">
        <ele>151.421</ele>
        <time>2017-12-16T17:05:07Z</time>
      </trkpt>
      <trkpt lat="48.24801" lon="2.62897">
        <ele>151.26</ele>
        <time>2017-12-16T17:05:22Z</time>
      </trkpt>
      <trkpt lat="48.24783" lon="2.62914">
        <ele>151.054</ele>
        <time>2017-12-16T17:05:39Z</time>
      </trkpt>
      <trkpt lat="48.24772" lon="2.62923">
        <ele>150.846</ele>
        <time>2017-12-16T17:05:53Z</time>
      </trkpt>
      <trkpt lat="48.24757" lon="2.62936">
        <ele>150.67</ele>
        <time>2017-12-16T17:06:04Z</time>
      </trkpt>
      <trkpt lat="48.24739" lon="2.62948">
        <ele>150.433</ele>
        <time>2017-12-16T17:06:18Z</time>
      </trkpt>
      <trkpt lat="48.24724" lon="2.62956">
        <ele>150.274</ele>
        <time>2017-12-16T17:06:27Z</time>
      </trkpt>
      <trkpt lat="48.24706" lon="2.62962">
        <ele>150.049</ele>
        <time>2017-12-16T17:06:40Z</time>
      </trkpt>
      <trkpt lat="48.24694" lon="2.62965">
        <ele>149.844</ele>
        <time>2017-12-16T17:06:53Z</time>
      </trkpt>
      <trkpt lat="48.24683" lon="2.62975">
        <ele>149.672</ele>
        <time>2017-12-16T17:07:06Z</time>
      </trkpt>
      <trkpt lat="48.24653" lon="2.63006">
        <ele>149.401</ele>
        <time>2017-12-16T17:07:23Z</time>
      </trkpt>
      <trkpt lat="48.24641" lon="2.6303">
        <ele>149.235</ele>
        <time>2017-12-16T17:07:32Z</time>
      </trkpt>
      <trkpt lat="48.2463" lon="2.63051">
        <ele>149.072</ele>
        <time>2017-12-16T17:07:41Z</time>
      </trkpt>
      <trkpt lat="48.24622" lon="2.63068">
        <ele>148.94</ele>
        <time>2017-12-16T17:07:49Z</time>
      </trkpt>
      <trkpt lat="48.24613" lon="2.63102">
        <ele>148.707</ele>
        <time>2017-12-16T17:08:05Z</time>
      </trkpt>
      <trkpt lat="48.24611" lon="2.63125">
        <ele>148.509</ele>
        <time>2017-12-16T17:08:22Z</time>
      </trkpt>
      <trkpt lat="48.24606" lon="2.63149">
        <ele>148.383</ele>
        <time>2017-12-16T17:08:31Z</time>
      </trkpt>
      <trkpt lat="48.24595" lon="2.6317">
        <ele>148.281</ele>
        <time>2017-12-16T17:08:37Z</time>
      </trkpt>
      <trkpt lat="48.2459" lon="2.63183">
        <ele>148.15</ele>
        <time>2017-12-16T17:08:45Z</time>
      </trkpt>
      <trkpt lat="48.2459" lon="2.63207">
        <ele>147.927</ele>
        <time>2017-12-16T17:09:00Z</time>
      </trkpt>
      <trkpt lat="48.24589" lon="2.6323">
        <ele>147.774</ele>
        <time>2017-12-16T17:09:11Z</time>
      </trkpt>
      <trkpt lat="48.24585" lon="2.63241">
        <ele>147.678</ele>
        <time>2017-12-16T17:09:18Z</time>
      </trkpt>
      <trkpt lat="48.24582" lon="2.63263">
        <ele>147.558</ele>
        <time>2017-12-16T17:09:29Z</time>
      </trkpt>
      <trkpt lat="48.24582" lon="2.63263">
        <ele>93.9</ele>
        <time>2017-12-16T17:09:37Z</time>
      </trkpt>
      <trkpt lat="48.24582" lon="2.63263">
        <ele>93.9</ele>
        <time>2017-12-16T17:09:42Z</time>
      </trkpt>
      <trkpt lat="48.24575" lon="2.63275">
        <ele>147.442</ele>
        <time>2017-12-16T17:09:42Z</time>
      </trkpt>
      <trkpt lat="48.24552" lon="2.63312">
        <ele>147.235</ele>
        <time>2017-12-16T17:09:56Z</time>
      </trkpt>
      <trkpt lat="48.24538" lon="2.63323">
        <ele>147.103</ele>
        <time>2017-12-16T17:10:05Z</time>
      </trkpt>
      <trkpt lat="48.24529" lon="2.63332">
        <ele>147.016</ele>
        <time>2017-12-16T17:10:11Z</time>
      </trkpt>
      <trkpt lat="48.2451" lon="2.63356">
        <ele>146.86</ele>
        <time>2017-12-16T17:10:22Z</time>
      </trkpt>
      <trkpt lat="48.24507" lon="2.6338">
        <ele>146.708</ele>
        <time>2017-12-16T17:10:33Z</time>
      </trkpt>
      <trkpt lat="48.24501" lon="2.63412">
        <ele>146.534</ele>
        <time>2017-12-16T17:10:45Z</time>
      </trkpt>
      <trkpt lat="48.24498" lon="2.63434">
        <ele>146.356</ele>
        <time>2017-12-16T17:10:57Z</time>
      </trkpt>
      <trkpt lat="48.24499" lon="2.63465">
        <ele>146.141</ele>
        <time>2017-12-16T17:11:12Z</time>
      </trkpt>
      <trkpt lat="48.24497" lon="2.63481">
        <ele>146.031</ele>
        <time>2017-12-16T17:11:20Z</time>
      </trkpt>
      <trkpt lat="48.24485" lon="2.63518">
        <ele>145.839</ele>
        <time>2017-12-16T17:11:34Z</time>
      </trkpt>
      <trkpt lat="48.24482" lon="2.63545">
        <ele>145.667</ele>
        <time>2017-12-16T17:11:47Z</time>
      </trkpt>
      <trkpt lat="48.24482" lon="2.63545">
        <ele>145.667</ele>
        <time>2017-12-16T17:11:54Z</time>
      </trkpt>
      <trkpt lat="48.24482" lon="2.63545">
        <ele>87.6</ele>
        <time>2017-12-16T17:11:54Z</time>
      </trkpt>
      <trkpt lat="48.24482" lon="2.63545">
        <ele>87.6</ele>
        <time>2017-12-16T17:12:47Z</time>
      </trkpt>
      <trkpt lat="48.24469" lon="2.63589">
        <ele>145.133</ele>
        <time>2017-12-16T17:12:47Z</time>
      </trkpt>
      <trkpt lat="48.24469" lon="2.63589">
        <ele>145.133</ele>
        <time>2017-12-16T17:12:52Z</time>
      </trkpt>
      <trkpt lat="48.24469" lon="2.63589">
        <ele>85.9</ele>
        <time>2017-12-16T17:12:52Z</time>
      </trkpt>
      <trkpt lat="48.24469" lon="2.63589">
        <ele>85.9</ele>
        <time>2017-12-16T17:13:02Z</time>
      </trkpt>
      <trkpt lat="48.24466" lon="2.6361">
        <ele>144.942</ele>
        <time>2017-12-16T17:13:02Z</time>
      </trkpt>
      <trkpt lat="48.24461" lon="2.63626">
        <ele>144.797</ele>
        <time>2017-12-16T17:13:12Z</time>
      </trkpt>
      <trkpt lat="48.24458" lon="2.63632">
        <ele>144.753</ele>
        <time>2017-12-16T17:13:16Z</time>
      </trkpt>
      <trkpt lat="48.24458" lon="2.63632">
        <ele>88</ele>
        <time>2017-12-16T17:13:23Z</time>
      </trkpt>
      <trkpt lat="48.24458" lon="2.63632">
        <ele>88</ele>
        <time>2017-12-16T17:13:28Z</time>
      </trkpt>
      <trkpt lat="48.2446" lon="2.63644">
        <ele>144.614</ele>
        <time>2017-12-16T17:13:28Z</time>
      </trkpt>
      <trkpt lat="48.24456" lon="2.63678">
        <ele>144.421</ele>
        <time>2017-12-16T17:13:45Z</time>
      </trkpt>
      <trkpt lat="48.24455" lon="2.63696">
        <ele>144.349</ele>
        <time>2017-12-16T17:13:52Z</time>
      </trkpt>
      <trkpt lat="48.2446" lon="2.63709">
        <ele>144.286</ele>
        <time>2017-12-16T17:14:00Z</time>
      </trkpt>
      <trkpt lat="48.2446" lon="2.63709">
        <ele>144.286</ele>
        <time>2017-12-16T17:14:07Z</time>
      </trkpt>
      <trkpt lat="48.2446" lon="2.63709">
        <ele>89.3</ele>
        <time>2017-12-16T17:14:07Z</time>
      </trkpt>
      <trkpt lat="48.2446" lon="2.63709">
        <ele>89.3</ele>
        <time>2017-12-16T17:14:18Z</time>
      </trkpt>
      <trkpt lat="48.24465" lon="2.63726">
        <ele>144.198</ele>
        <time>2017-12-16T17:14:18Z</time>
      </trkpt>
      <trkpt lat="48.2447" lon="2.63743">
        <ele>144.156</ele>
        <time>2017-12-16T17:14:31Z</time>
      </trkpt>
      <trkpt lat="48.24474" lon="2.63766">
        <ele>144.128</ele>
        <time>2017-12-16T17:14:48Z</time>
      </trkpt>
      <trkpt lat="48.24474" lon="2.63766">
        <ele>144.128</ele>
        <time>2017-12-16T17:14:55Z</time>
      </trkpt>
      <trkpt lat="48.24474" lon="2.63766">
        <ele>85</ele>
        <time>2017-12-16T17:14:55Z</time>
      </trkpt>
      <trkpt lat="48.24474" lon="2.63766">
        <ele>85</ele>
        <time>2017-12-16T17:15:09Z</time>
      </trkpt>
      <trkpt lat="48.24478" lon="2.63792">
        <ele>144.084</ele>
        <time>2017-12-16T17:15:09Z</time>
      </trkpt>
      <trkpt lat="48.24484" lon="2.63815">
        <ele>144.033</ele>
        <time>2017-12-16T17:15:19Z</time>
      </trkpt>
      <trkpt lat="48.2449" lon="2.6384">
        <ele>144.029</ele>
        <time>2017-12-16T17:15:20Z</time>
      </trkpt>
      <trkpt lat="48.2449" lon="2.6384">
        <ele>84.2</ele>
        <time>2017-12-16T17:15:25Z</time>
      </trkpt>
      <trkpt lat="48.2449" lon="2.6384">
        <ele>84.2</ele>
        <time>2017-12-16T17:15:37Z</time>
      </trkpt>
      <trkpt lat="48.24489" lon="2.63881">
        <ele>143.985</ele>
        <time>2017-12-16T17:15:37Z</time>
      </trkpt>
      <trkpt lat="48.24455" lon="2.63944">
        <ele>143.996</ele>
        <time>2017-12-16T17:15:44Z</time>
      </trkpt>
      <trkpt lat="48.24436" lon="2.63969">
        <ele>144.005</ele>
        <time>2017-12-16T17:15:51Z</time>
      </trkpt>
      <trkpt lat="48.24423" lon="2.63983">
        <ele>144.008</ele>
        <time>2017-12-16T17:15:59Z</time>
      </trkpt>
      <trkpt lat="48.24405" lon="2.64003">
        <ele>143.961</ele>
        <time>2017-12-16T17:16:14Z</time>
      </trkpt>
      <trkpt lat="48.24396" lon="2.64029">
        <ele>143.847</ele>
        <time>2017-12-16T17:16:31Z</time>
      </trkpt>
      <trkpt lat="48.2439" lon="2.64051">
        <ele>143.805</ele>
        <time>2017-12-16T17:16:39Z</time>
      </trkpt>
      <trkpt lat="48.24391" lon="2.64068">
        <ele>143.749</ele>
        <time>2017-12-16T17:16:47Z</time>
      </trkpt>
      <trkpt lat="48.2439" lon="2.64103">
        <ele>143.637</ele>
        <time>2017-12-16T17:17:03Z</time>
      </trkpt>
      <trkpt lat="48.2438" lon="2.6415">
        <ele>143.506</ele>
        <time>2017-12-16T17:17:19Z</time>
      </trkpt>
      <trkpt lat="48.24375" lon="2.64168">
        <ele>143.428</ele>
        <time>2017-12-16T17:17:29Z</time>
      </trkpt>
      <trkpt lat="48.24371" lon="2.64192">
        <ele>143.356</ele>
        <time>2017-12-16T17:17:41Z</time>
      </trkpt>
      <trkpt lat="48.24361" lon="2.64232">
        <ele>143.28</ele>
        <time>2017-12-16T17:17:58Z</time>
      </trkpt>
      <trkpt lat="48.24358" lon="2.64257">
        <ele>143.228</ele>
        <time>2017-12-16T17:18:11Z</time>
      </trkpt>
      <trkpt lat="48.2435" lon="2.64294">
        <ele>143.116</ele>
        <time>2017-12-16T17:18:28Z</time>
      </trkpt>
      <trkpt lat="48.24331" lon="2.64327">
        <ele>142.969</ele>
        <time>2017-12-16T17:18:41Z</time>
      </trkpt>
      <trkpt lat="48.24326" lon="2.64341">
        <ele>142.839</ele>
        <time>2017-12-16T17:18:47Z</time>
      </trkpt>
      <trkpt lat="48.2432" lon="2.64358">
        <ele>142.642</ele>
        <time>2017-12-16T17:18:56Z</time>
      </trkpt>
      <trkpt lat="48.24315" lon="2.64377">
        <ele>142.498</ele>
        <time>2017-12-16T17:19:05Z</time>
      </trkpt>
      <trkpt lat="48.24306" lon="2.64417">
        <ele>142.208</ele>
        <time>2017-12-16T17:19:23Z</time>
      </trkpt>
      <trkpt lat="48.24305" lon="2.64435">
        <ele>142.15</ele>
        <time>2017-12-16T17:19:30Z</time>
      </trkpt>
      <trkpt lat="48.24306" lon="2.64465">
        <ele>141.847</ele>
        <time>2017-12-16T17:19:48Z</time>
      </trkpt>
      <trkpt lat="48.24314" lon="2.64494">
        <ele>141.613</ele>
        <time>2017-12-16T17:20:02Z</time>
      </trkpt>
      <trkpt lat="48.2432" lon="2.64511">
        <ele>141.419</ele>
        <time>2017-12-16T17:20:14Z</time>
      </trkpt>
      <trkpt lat="48.24322" lon="2.64541">
        <ele>141.208</ele>
        <time>2017-12-16T17:20:28Z</time>
      </trkpt>
      <trkpt lat="48.2432" lon="2.64566">
        <ele>141.024</ele>
        <time>2017-12-16T17:20:41Z</time>
      </trkpt>
      <trkpt lat="48.24326" lon="2.64593">
        <ele>140.752</ele>
        <time>2017-12-16T17:20:57Z</time>
      </trkpt>
      <trkpt lat="48.24332" lon="2.64613">
        <ele>140.499</ele>
        <time>2017-12-16T17:21:10Z</time>
      </trkpt>
      <trkpt lat="48.24333" lon="2.6462">
        <ele>140.419</ele>
        <time>2017-12-16T17:21:14Z</time>
      </trkpt>
      <trkpt lat="48.24333" lon="2.6462">
        <ele>79.4</ele>
        <time>2017-12-16T17:21:21Z</time>
      </trkpt>
      <trkpt lat="48.24333" lon="2.6462">
        <ele>79.4</ele>
        <time>2017-12-16T17:21:26Z</time>
      </trkpt>
      <trkpt lat="48.24335" lon="2.64632">
        <ele>140.231</ele>
        <time>2017-12-16T17:21:26Z</time>
      </trkpt>
      <trkpt lat="48.24336" lon="2.64662">
        <ele>139.764</ele>
        <time>2017-12-16T17:21:42Z</time>
      </trkpt>
      <trkpt lat="48.24342" lon="2.6469">
        <ele>139.237</ele>
        <time>2017-12-16T17:21:57Z</time>
      </trkpt>
      <trkpt lat="48.24347" lon="2.64709">
        <ele>138.822</ele>
        <time>2017-12-16T17:22:10Z</time>
      </trkpt>
      <trkpt lat="48.24351" lon="2.64747">
        <ele>135.264</ele>
        <time>2017-12-16T17:24:08Z</time>
      </trkpt>
      <trkpt lat="48.24359" lon="2.64788">
        <ele>132.908</ele>
        <time>2017-12-16T17:25:21Z</time>
      </trkpt>
      <trkpt lat="48.24371" lon="2.64802">
        <ele>132.375</ele>
        <time>2017-12-16T17:25:34Z</time>
      </trkpt>
      <trkpt lat="48.24382" lon="2.64824">
        <ele>131.856</ele>
        <time>2017-12-16T17:25:49Z</time>
      </trkpt>
      <trkpt lat="48.24392" lon="2.64841">
        <ele>131.482</ele>
        <time>2017-12-16T17:26:01Z</time>
      </trkpt>
      <trkpt lat="48.24407" lon="2.64866">
        <ele>131.06</ele>
        <time>2017-12-16T17:26:14Z</time>
      </trkpt>
      <trkpt lat="48.24416" lon="2.64887">
        <ele>130.637</ele>
        <time>2017-12-16T17:26:26Z</time>
      </trkpt>
      <trkpt lat="48.24418" lon="2.6491">
        <ele>130.1</ele>
        <time>2017-12-16T17:26:41Z</time>
      </trkpt>
      <trkpt lat="48.24417" lon="2.64928">
        <ele>129.616</ele>
        <time>2017-12-16T17:26:55Z</time>
      </trkpt>
      <trkpt lat="48.24414" lon="2.64942">
        <ele>129.322</ele>
        <time>2017-12-16T17:27:02Z</time>
      </trkpt>
      <trkpt lat="48.24414" lon="2.64942">
        <ele>80.2</ele>
        <time>2017-12-16T17:27:10Z</time>
      </trkpt>
      <trkpt lat="48.24414" lon="2.64942">
        <ele>80.2</ele>
        <time>2017-12-16T17:27:26Z</time>
      </trkpt>
      <trkpt lat="48.24426" lon="2.64953">
        <ele>128.372</ele>
        <time>2017-12-16T17:27:26Z</time>
      </trkpt>
      <trkpt lat="48.24441" lon="2.64975">
        <ele>127.924</ele>
        <time>2017-12-16T17:27:37Z</time>
      </trkpt>
      <trkpt lat="48.24452" lon="2.64997">
        <ele>127.542</ele>
        <time>2017-12-16T17:27:49Z</time>
      </trkpt>
      <trkpt lat="48.2446" lon="2.65011">
        <ele>127.303</ele>
        <time>2017-12-16T17:27:58Z</time>
      </trkpt>
      <trkpt lat="48.24472" lon="2.65026">
        <ele>127.042</ele>
        <time>2017-12-16T17:28:10Z</time>
      </trkpt>
      <trkpt lat="48.24482" lon="2.65047">
        <ele>126.847</ele>
        <time>2017-12-16T17:28:22Z</time>
      </trkpt>
      <trkpt lat="48.24498" lon="2.65072">
        <ele>126.658</ele>
        <time>2017-12-16T17:28:37Z</time>
      </trkpt>
      <trkpt lat="48.24505" lon="2.65085">
        <ele>126.573</ele>
        <time>2017-12-16T17:28:46Z</time>
      </trkpt>
      <trkpt lat="48.24519" lon="2.65108">
        <ele>126.489</ele>
        <time>2017-12-16T17:28:59Z</time>
      </trkpt>
      <trkpt lat="48.24535" lon="2.65133">
        <ele>126.44</ele>
        <time>2017-12-16T17:29:14Z</time>
      </trkpt>
      <trkpt lat="48.24544" lon="2.65149">
        <ele>126.442</ele>
        <time>2017-12-16T17:29:23Z</time>
      </trkpt>
      <trkpt lat="48.24553" lon="2.65176">
        <ele>126.484</ele>
        <time>2017-12-16T17:29:37Z</time>
      </trkpt>
      <trkpt lat="48.24563" lon="2.65206">
        <ele>126.443</ele>
        <time>2017-12-16T17:29:52Z</time>
      </trkpt>
      <trkpt lat="48.24569" lon="2.65223">
        <ele>126.399</ele>
        <time>2017-12-16T17:30:00Z</time>
      </trkpt>
      <trkpt lat="48.2458" lon="2.65247">
        <ele>126.343</ele>
        <time>2017-12-16T17:30:13Z</time>
      </trkpt>
      <trkpt lat="48.24592" lon="2.65269">
        <ele>126.323</ele>
        <time>2017-12-16T17:30:25Z</time>
      </trkpt>
      <trkpt lat="48.24598" lon="2.6528">
        <ele>126.317</ele>
        <time>2017-12-16T17:30:31Z</time>
      </trkpt>
      <trkpt lat="48.24611" lon="2.65298">
        <ele>126.311</ele>
        <time>2017-12-16T17:30:42Z</time>
      </trkpt>
      <trkpt lat="48.24627" lon="2.65313">
        <ele>126.301</ele>
        <time>2017-12-16T17:30:56Z</time>
      </trkpt>
      <trkpt lat="48.24644" lon="2.6534">
        <ele>126.303</ele>
        <time>2017-12-16T17:31:10Z</time>
      </trkpt>
      <trkpt lat="48.24655" lon="2.65365">
        <ele>126.306</ele>
        <time>2017-12-16T17:31:22Z</time>
      </trkpt>
      <trkpt lat="48.24667" lon="2.65381">
        <ele>126.287</ele>
        <time>2017-12-16T17:31:34Z</time>
      </trkpt>
      <trkpt lat="48.24682" lon="2.65401">
        <ele>126.239</ele>
        <time>2017-12-16T17:31:48Z</time>
      </trkpt>
      <trkpt lat="48.24694" lon="2.65417">
        <ele>126.181</ele>
        <time>2017-12-16T17:31:59Z</time>
      </trkpt>
      <trkpt lat="48.24705" lon="2.65446">
        <ele>126.062</ele>
        <time>2017-12-16T17:32:11Z</time>
      </trkpt>
      <trkpt lat="48.24714" lon="2.65468">
        <ele>125.955</ele>
        <time>2017-12-16T17:32:23Z</time>
      </trkpt>
      <trkpt lat="48.24733" lon="2.65487">
        <ele>125.819</ele>
        <time>2017-12-16T17:32:39Z</time>
      </trkpt>
      <trkpt lat="48.24749" lon="2.65509">
        <ele>125.684</ele>
        <time>2017-12-16T17:32:53Z</time>
      </trkpt>
      <trkpt lat="48.24764" lon="2.65531">
        <ele>125.57</ele>
        <time>2017-12-16T17:33:06Z</time>
      </trkpt>
      <trkpt lat="48.24779" lon="2.65552">
        <ele>125.433</ele>
        <time>2017-12-16T17:33:20Z</time>
      </trkpt>
      <trkpt lat="48.2479" lon="2.65567">
        <ele>125.332</ele>
        <time>2017-12-16T17:33:30Z</time>
      </trkpt>
      <trkpt lat="48.24806" lon="2.65589">
        <ele>125.221</ele>
        <time>2017-12-16T17:33:44Z</time>
      </trkpt>
      <trkpt lat="48.24817" lon="2.65617">
        <ele>125.108</ele>
        <time>2017-12-16T17:33:56Z</time>
      </trkpt>
      <trkpt lat="48.24823" lon="2.6563">
        <ele>125.035</ele>
        <time>2017-12-16T17:34:03Z</time>
      </trkpt>
      <trkpt lat="48.24835" lon="2.65656">
        <ele>124.926</ele>
        <time>2017-12-16T17:34:17Z</time>
      </trkpt>
      <trkpt lat="48.24848" lon="2.65679">
        <ele>124.87</ele>
        <time>2017-12-16T17:34:32Z</time>
      </trkpt>
      <trkpt lat="48.2487" lon="2.65697">
        <ele>124.779</ele>
        <time>2017-12-16T17:34:49Z</time>
      </trkpt>
      <trkpt lat="48.24886" lon="2.65723">
        <ele>124.697</ele>
        <time>2017-12-16T17:35:03Z</time>
      </trkpt>
      <trkpt lat="48.24892" lon="2.65735">
        <ele>124.658</ele>
        <time>2017-12-16T17:35:11Z</time>
      </trkpt>
      <trkpt lat="48.24899" lon="2.65755">
        <ele>124.579</ele>
        <time>2017-12-16T17:35:23Z</time>
      </trkpt>
      <trkpt lat="48.24911" lon="2.6578">
        <ele>124.443</ele>
        <time>2017-12-16T17:35:35Z</time>
      </trkpt>
      <trkpt lat="48.24923" lon="2.6581">
        <ele>124.254</ele>
        <time>2017-12-16T17:35:48Z</time>
      </trkpt>
      <trkpt lat="48.24929" lon="2.6584">
        <ele>124.025</ele>
        <time>2017-12-16T17:36:01Z</time>
      </trkpt>
      <trkpt lat="48.24938" lon="2.65875">
        <ele>123.717</ele>
        <time>2017-12-16T17:36:16Z</time>
      </trkpt>
      <trkpt lat="48.24948" lon="2.6592">
        <ele>123.264</ele>
        <time>2017-12-16T17:36:35Z</time>
      </trkpt>
      <trkpt lat="48.24952" lon="2.65944">
        <ele>123.031</ele>
        <time>2017-12-16T17:36:45Z</time>
      </trkpt>
      <trkpt lat="48.24955" lon="2.65966">
        <ele>122.806</ele>
        <time>2017-12-16T17:36:55Z</time>
      </trkpt>
      <trkpt lat="48.24956" lon="2.65989">
        <ele>122.503</ele>
        <time>2017-12-16T17:37:08Z</time>
      </trkpt>
      <trkpt lat="48.24956" lon="2.66032">
        <ele>122.043</ele>
        <time>2017-12-16T17:37:26Z</time>
      </trkpt>
      <trkpt lat="48.24956" lon="2.66062">
        <ele>121.759</ele>
        <time>2017-12-16T17:37:38Z</time>
      </trkpt>
      <trkpt lat="48.24956" lon="2.66082">
        <ele>121.56</ele>
        <time>2017-12-16T17:37:47Z</time>
      </trkpt>
      <trkpt lat="48.24957" lon="2.6611">
        <ele>121.322</ele>
        <time>2017-12-16T17:37:59Z</time>
      </trkpt>
      <trkpt lat="48.24956" lon="2.66135">
        <ele>121.142</ele>
        <time>2017-12-16T17:38:08Z</time>
      </trkpt>
      <trkpt lat="48.24957" lon="2.66151">
        <ele>120.999</ele>
        <time>2017-12-16T17:38:15Z</time>
      </trkpt>
      <trkpt lat="48.24958" lon="2.66169">
        <ele>120.847</ele>
        <time>2017-12-16T17:38:23Z</time>
      </trkpt>
      <trkpt lat="48.24957" lon="2.66182">
        <ele>120.729</ele>
        <time>2017-12-16T17:38:29Z</time>
      </trkpt>
      <trkpt lat="48.24955" lon="2.66197">
        <ele>120.592</ele>
        <time>2017-12-16T17:38:36Z</time>
      </trkpt>
      <trkpt lat="48.24955" lon="2.66197">
        <ele>74.2</ele>
        <time>2017-12-16T17:38:43Z</time>
      </trkpt>
      <trkpt lat="48.24955" lon="2.66197">
        <ele>74.2</ele>
        <time>2017-12-16T17:38:46Z</time>
      </trkpt>
      <trkpt lat="48.24958" lon="2.66206">
        <ele>120.485</ele>
        <time>2017-12-16T17:38:46Z</time>
      </trkpt>
      <trkpt lat="48.24965" lon="2.66211">
        <ele>120.331</ele>
        <time>2017-12-16T17:38:56Z</time>
      </trkpt>
      <trkpt lat="48.24982" lon="2.66198">
        <ele>120.075</ele>
        <time>2017-12-16T17:39:12Z</time>
      </trkpt>
      <trkpt lat="48.25006" lon="2.66186">
        <ele>119.742</ele>
        <time>2017-12-16T17:39:29Z</time>
      </trkpt>
      <trkpt lat="48.25017" lon="2.6618">
        <ele>119.558</ele>
        <time>2017-12-16T17:39:37Z</time>
      </trkpt>
      <trkpt lat="48.25038" lon="2.6617">
        <ele>119.207</ele>
        <time>2017-12-16T17:39:51Z</time>
      </trkpt>
      <trkpt lat="48.25056" lon="2.66163">
        <ele>118.909</ele>
        <time>2017-12-16T17:40:03Z</time>
      </trkpt>
      <trkpt lat="48.25077" lon="2.66149">
        <ele>118.539</ele>
        <time>2017-12-16T17:40:17Z</time>
      </trkpt>
      <trkpt lat="48.25095" lon="2.66139">
        <ele>118.179</ele>
        <time>2017-12-16T17:40:31Z</time>
      </trkpt>
      <trkpt lat="48.25112" lon="2.6613">
        <ele>117.784</ele>
        <time>2017-12-16T17:40:47Z</time>
      </trkpt>
      <trkpt lat="48.25122" lon="2.66126">
        <ele>117.558</ele>
        <time>2017-12-16T17:40:58Z</time>
      </trkpt>
      <trkpt lat="48.25135" lon="2.66121">
        <ele>117.334</ele>
        <time>2017-12-16T17:41:11Z</time>
      </trkpt>
      <trkpt lat="48.25145" lon="2.66116">
        <ele>117.179</ele>
        <time>2017-12-16T17:41:24Z</time>
      </trkpt>
      <trkpt lat="48.25145" lon="2.66116">
        <ele>81.1</ele>
        <time>2017-12-16T17:41:31Z</time>
      </trkpt>
      <trkpt lat="48.25145" lon="2.66116">
        <ele>81.1</ele>
        <time>2017-12-16T17:41:36Z</time>
      </trkpt>
      <trkpt lat="48.25155" lon="2.6611">
        <ele>117.093</ele>
        <time>2017-12-16T17:41:36Z</time>
      </trkpt>
      <trkpt lat="48.25183" lon="2.66121">
        <ele>117.053</ele>
        <time>2017-12-16T17:41:49Z</time>
      </trkpt>
      <trkpt lat="48.25198" lon="2.66124">
        <ele>117.076</ele>
        <time>2017-12-16T17:41:58Z</time>
      </trkpt>
      <trkpt lat="48.2521" lon="2.66123">
        <ele>117.115</ele>
        <time>2017-12-16T17:42:05Z</time>
      </trkpt>
      <trkpt lat="48.2523" lon="2.6613">
        <ele>117.237</ele>
        <time>2017-12-16T17:42:19Z</time>
      </trkpt>
      <trkpt lat="48.25254" lon="2.6613">
        <ele>117.423</ele>
        <time>2017-12-16T17:42:35Z</time>
      </trkpt>
      <trkpt lat="48.2527" lon="2.66136">
        <ele>117.62</ele>
        <time>2017-12-16T17:42:51Z</time>
      </trkpt>
      <trkpt lat="48.25279" lon="2.66155">
        <ele>118.023</ele>
        <time>2017-12-16T17:43:07Z</time>
      </trkpt>
      <trkpt lat="48.25288" lon="2.66181">
        <ele>118.486</ele>
        <time>2017-12-16T17:43:21Z</time>
      </trkpt>
      <trkpt lat="48.2529" lon="2.66188">
        <ele>118.597</ele>
        <time>2017-12-16T17:43:24Z</time>
      </trkpt>
      <trkpt lat="48.2529" lon="2.66188">
        <ele>87.2</ele>
        <time>2017-12-16T17:43:32Z</time>
      </trkpt>
      <trkpt lat="48.2529" lon="2.66188">
        <ele>87.2</ele>
        <time>2017-12-16T17:43:36Z</time>
      </trkpt>
      <trkpt lat="48.25293" lon="2.66197">
        <ele>119.02</ele>
        <time>2017-12-16T17:43:36Z</time>
      </trkpt>
      <trkpt lat="48.25299" lon="2.66238">
        <ele>119.544</ele>
        <time>2017-12-16T17:43:56Z</time>
      </trkpt>
      <trkpt lat="48.25302" lon="2.66277">
        <ele>119.859</ele>
        <time>2017-12-16T17:44:12Z</time>
      </trkpt>
      <trkpt lat="48.25305" lon="2.66287">
        <ele>120.019</ele>
        <time>2017-12-16T17:44:21Z</time>
      </trkpt>
      <trkpt lat="48.25305" lon="2.66287">
        <ele>89</ele>
        <time>2017-12-16T17:44:29Z</time>
      </trkpt>
      <trkpt lat="48.25305" lon="2.66287">
        <ele>89</ele>
        <time>2017-12-16T17:47:19Z</time>
      </trkpt>
      <trkpt lat="48.25297" lon="2.66292">
        <ele>120.146</ele>
        <time>2017-12-16T17:47:19Z</time>
      </trkpt>
      <trkpt lat="48.25282" lon="2.66301">
        <ele>120.228</ele>
        <time>2017-12-16T17:47:30Z</time>
      </trkpt>
      <trkpt lat="48.25266" lon="2.6631">
        <ele>120.395</ele>
        <time>2017-12-16T17:47:43Z</time>
      </trkpt>
      <trkpt lat="48.2525" lon="2.66322">
        <ele>120.643</ele>
        <time>2017-12-16T17:47:57Z</time>
      </trkpt>
      <trkpt lat="48.25231" lon="2.66328">
        <ele>120.931</ele>
        <time>2017-12-16T17:48:11Z</time>
      </trkpt>
      <trkpt lat="48.25213" lon="2.66336">
        <ele>121.268</ele>
        <time>2017-12-16T17:48:25Z</time>
      </trkpt>
      <trkpt lat="48.25197" lon="2.66345">
        <ele>121.573</ele>
        <time>2017-12-16T17:48:38Z</time>
      </trkpt>
      <trkpt lat="48.2518" lon="2.66355">
        <ele>121.946</ele>
        <time>2017-12-16T17:48:55Z</time>
      </trkpt>
      <trkpt lat="48.25167" lon="2.66363">
        <ele>122.183</ele>
        <time>2017-12-16T17:49:09Z</time>
      </trkpt>
      <trkpt lat="48.25147" lon="2.66373">
        <ele>122.324</ele>
        <time>2017-12-16T17:49:26Z</time>
      </trkpt>
      <trkpt lat="48.25146" lon="2.66398">
        <ele>122.363</ele>
        <time>2017-12-16T17:49:44Z</time>
      </trkpt>
      <trkpt lat="48.25157" lon="2.66415">
        <ele>122.358</ele>
        <time>2017-12-16T17:49:56Z</time>
      </trkpt>
      <trkpt lat="48.25158" lon="2.66422">
        <ele>122.351</ele>
        <time>2017-12-16T17:50:00Z</time>
      </trkpt>
      <trkpt lat="48.25158" lon="2.66422">
        <ele>77.4</ele>
        <time>2017-12-16T17:50:05Z</time>
      </trkpt>
      <trkpt lat="48.25158" lon="2.66422">
        <ele>77.4</ele>
        <time>2017-12-16T17:50:09Z</time>
      </trkpt>
      <trkpt lat="48.25151" lon="2.66431">
        <ele>122.325</ele>
        <time>2017-12-16T17:50:09Z</time>
      </trkpt>
      <trkpt lat="48.25138" lon="2.6644">
        <ele>122.278</ele>
        <time>2017-12-16T17:50:18Z</time>
      </trkpt>
      <trkpt lat="48.25117" lon="2.66455">
        <ele>122.16</ele>
        <time>2017-12-16T17:50:33Z</time>
      </trkpt>
      <trkpt lat="48.25103" lon="2.66469">
        <ele>122.036</ele>
        <time>2017-12-16T17:50:44Z</time>
      </trkpt>
      <trkpt lat="48.25091" lon="2.66484">
        <ele>121.89</ele>
        <time>2017-12-16T17:50:54Z</time>
      </trkpt>
      <trkpt lat="48.25079" lon="2.66501">
        <ele>121.703</ele>
        <time>2017-12-16T17:51:05Z</time>
      </trkpt>
      <trkpt lat="48.25064" lon="2.66515">
        <ele>121.487</ele>
        <time>2017-12-16T17:51:16Z</time>
      </trkpt>
      <trkpt lat="48.25056" lon="2.66525">
        <ele>121.343</ele>
        <time>2017-12-16T17:51:23Z</time>
      </trkpt>
      <trkpt lat="48.25047" lon="2.66531">
        <ele>121.217</ele>
        <time>2017-12-16T17:51:29Z</time>
      </trkpt>
      <trkpt lat="48.25032" lon="2.66528">
        <ele>120.997</ele>
        <time>2017-12-16T17:51:39Z</time>
      </trkpt>
      <trkpt lat="48.2502" lon="2.66513">
        <ele>120.774</ele>
        <time>2017-12-16T17:51:49Z</time>
      </trkpt>
      <trkpt lat="48.2502" lon="2.66513">
        <ele>120.774</ele>
        <time>2017-12-16T17:51:57Z</time>
      </trkpt>
      <trkpt lat="48.2502" lon="2.66513">
        <ele>72.3</ele>
        <time>2017-12-16T17:51:57Z</time>
      </trkpt>
      <trkpt lat="48.2502" lon="2.66513">
        <ele>72.3</ele>
        <time>2017-12-16T17:52:02Z</time>
      </trkpt>
      <trkpt lat="48.25017" lon="2.66498">
        <ele>120.564</ele>
        <time>2017-12-16T17:52:02Z</time>
      </trkpt>
      <trkpt lat="48.25002" lon="2.66477">
        <ele>120.287</ele>
        <time>2017-12-16T17:52:16Z</time>
      </trkpt>
      <trkpt lat="48.2499" lon="2.66462">
        <ele>120.049</ele>
        <time>2017-12-16T17:52:30Z</time>
      </trkpt>
      <trkpt lat="48.24976" lon="2.66433">
        <ele>119.753</ele>
        <time>2017-12-16T17:52:48Z</time>
      </trkpt>
      <trkpt lat="48.2497" lon="2.66416">
        <ele>119.626</ele>
        <time>2017-12-16T17:52:57Z</time>
      </trkpt>
      <trkpt lat="48.24966" lon="2.66396">
        <ele>119.49</ele>
        <time>2017-12-16T17:53:07Z</time>
      </trkpt>
      <trkpt lat="48.24951" lon="2.66372">
        <ele>119.299</ele>
        <time>2017-12-16T17:53:21Z</time>
      </trkpt>
      <trkpt lat="48.2494" lon="2.66357">
        <ele>119.179</ele>
        <time>2017-12-16T17:53:31Z</time>
      </trkpt>
      <trkpt lat="48.24921" lon="2.66341">
        <ele>119.024</ele>
        <time>2017-12-16T17:53:46Z</time>
      </trkpt>
      <trkpt lat="48.24912" lon="2.66325">
        <ele>118.918</ele>
        <time>2017-12-16T17:53:58Z</time>
      </trkpt>
      <trkpt lat="48.24912" lon="2.663">
        <ele>118.785</ele>
        <time>2017-12-16T17:54:12Z</time>
      </trkpt>
      <trkpt lat="48.24924" lon="2.66276">
        <ele>118.59</ele>
        <time>2017-12-16T17:54:29Z</time>
      </trkpt>
      <trkpt lat="48.24939" lon="2.66249">
        <ele>118.422</ele>
        <time>2017-12-16T17:54:45Z</time>
      </trkpt>
      <trkpt lat="48.24945" lon="2.66236">
        <ele>118.351</ele>
        <time>2017-12-16T17:54:54Z</time>
      </trkpt>
      <trkpt lat="48.24954" lon="2.6621">
        <ele>118.245</ele>
        <time>2017-12-16T17:55:07Z</time>
      </trkpt>
      <trkpt lat="48.24959" lon="2.66183">
        <ele>118.139</ele>
        <time>2017-12-16T17:55:20Z</time>
      </trkpt>
      <trkpt lat="48.24961" lon="2.66164">
        <ele>118.073</ele>
        <time>2017-12-16T17:55:29Z</time>
      </trkpt>
      <trkpt lat="48.2496" lon="2.66151">
        <ele>118.024</ele>
        <time>2017-12-16T17:55:36Z</time>
      </trkpt>
      <trkpt lat="48.24961" lon="2.66116">
        <ele>117.928</ele>
        <time>2017-12-16T17:55:51Z</time>
      </trkpt>
      <trkpt lat="48.24961" lon="2.66097">
        <ele>117.841</ele>
        <time>2017-12-16T17:56:01Z</time>
      </trkpt>
      <trkpt lat="48.24958" lon="2.6606">
        <ele>117.653</ele>
        <time>2017-12-16T17:56:18Z</time>
      </trkpt>
      <trkpt lat="48.24958" lon="2.66021">
        <ele>117.472</ele>
        <time>2017-12-16T17:56:34Z</time>
      </trkpt>
      <trkpt lat="48.24958" lon="2.66">
        <ele>117.369</ele>
        <time>2017-12-16T17:56:43Z</time>
      </trkpt>
      <trkpt lat="48.24955" lon="2.65972">
        <ele>117.218</ele>
        <time>2017-12-16T17:56:56Z</time>
      </trkpt>
      <trkpt lat="48.24951" lon="2.65943">
        <ele>117.052</ele>
        <time>2017-12-16T17:57:09Z</time>
      </trkpt>
      <trkpt lat="48.24947" lon="2.65914">
        <ele>116.877</ele>
        <time>2017-12-16T17:57:22Z</time>
      </trkpt>
      <trkpt lat="48.2494" lon="2.65882">
        <ele>116.678</ele>
        <time>2017-12-16T17:57:37Z</time>
      </trkpt>
      <trkpt lat="48.24931" lon="2.65849">
        <ele>116.471</ele>
        <time>2017-12-16T17:57:52Z</time>
      </trkpt>
      <trkpt lat="48.24923" lon="2.6582">
        <ele>116.298</ele>
        <time>2017-12-16T17:58:04Z</time>
      </trkpt>
      <trkpt lat="48.24915" lon="2.65798">
        <ele>116.151</ele>
        <time>2017-12-16T17:58:15Z</time>
      </trkpt>
      <trkpt lat="48.24909" lon="2.65779">
        <ele>116.039</ele>
        <time>2017-12-16T17:58:24Z</time>
      </trkpt>
      <trkpt lat="48.24899" lon="2.6575">
        <ele>115.901</ele>
        <time>2017-12-16T17:58:37Z</time>
      </trkpt>
      <trkpt lat="48.24889" lon="2.65728">
        <ele>115.792</ele>
        <time>2017-12-16T17:58:49Z</time>
      </trkpt>
      <trkpt lat="48.24877" lon="2.657">
        <ele>115.672</ele>
        <time>2017-12-16T17:59:04Z</time>
      </trkpt>
      <trkpt lat="48.24861" lon="2.65676">
        <ele>115.575</ele>
        <time>2017-12-16T17:59:18Z</time>
      </trkpt>
      <trkpt lat="48.24853" lon="2.65664">
        <ele>115.531</ele>
        <time>2017-12-16T17:59:25Z</time>
      </trkpt>
      <trkpt lat="48.24842" lon="2.65652">
        <ele>115.477</ele>
        <time>2017-12-16T17:59:34Z</time>
      </trkpt>
      <trkpt lat="48.24835" lon="2.65639">
        <ele>115.436</ele>
        <time>2017-12-16T17:59:42Z</time>
      </trkpt>
      <trkpt lat="48.24819" lon="2.65613">
        <ele>115.368</ele>
        <time>2017-12-16T18:00:00Z</time>
      </trkpt>
      <trkpt lat="48.24813" lon="2.65595">
        <ele>115.343</ele>
        <time>2017-12-16T18:00:10Z</time>
      </trkpt>
      <trkpt lat="48.24799" lon="2.65571">
        <ele>115.312</ele>
        <time>2017-12-16T18:00:24Z</time>
      </trkpt>
      <trkpt lat="48.24786" lon="2.65552">
        <ele>115.284</ele>
        <time>2017-12-16T18:00:36Z</time>
      </trkpt>
      <trkpt lat="48.24771" lon="2.65533">
        <ele>115.251</ele>
        <time>2017-12-16T18:00:48Z</time>
      </trkpt>
      <trkpt lat="48.24754" lon="2.65513">
        <ele>115.211</ele>
        <time>2017-12-16T18:01:01Z</time>
      </trkpt>
      <trkpt lat="48.24743" lon="2.65496">
        <ele>115.183</ele>
        <time>2017-12-16T18:01:12Z</time>
      </trkpt>
      <trkpt lat="48.24728" lon="2.65469">
        <ele>115.162</ele>
        <time>2017-12-16T18:01:26Z</time>
      </trkpt>
      <trkpt lat="48.24718" lon="2.65455">
        <ele>115.158</ele>
        <time>2017-12-16T18:01:36Z</time>
      </trkpt>
      <trkpt lat="48.24703" lon="2.65432">
        <ele>115.165</ele>
        <time>2017-12-16T18:01:51Z</time>
      </trkpt>
      <trkpt lat="48.24694" lon="2.65421">
        <ele>115.173</ele>
        <time>2017-12-16T18:02:00Z</time>
      </trkpt>
      <trkpt lat="48.24683" lon="2.65427">
        <ele>115.2</ele>
        <time>2017-12-16T18:02:12Z</time>
      </trkpt>
      <trkpt lat="48.24674" lon="2.65438">
        <ele>115.258</ele>
        <time>2017-12-16T18:02:25Z</time>
      </trkpt>
      <trkpt lat="48.24664" lon="2.65452">
        <ele>115.341</ele>
        <time>2017-12-16T18:02:39Z</time>
      </trkpt>
      <trkpt lat="48.24658" lon="2.65465">
        <ele>115.415</ele>
        <time>2017-12-16T18:02:50Z</time>
      </trkpt>
      <trkpt lat="48.24649" lon="2.65473">
        <ele>115.504</ele>
        <time>2017-12-16T18:03:01Z</time>
      </trkpt>
      <trkpt lat="48.24649" lon="2.65473">
        <ele>90.1</ele>
        <time>2017-12-16T18:03:08Z</time>
      </trkpt>
      <trkpt lat="48.24649" lon="2.65473">
        <ele>90.1</ele>
        <time>2017-12-16T18:03:15Z</time>
      </trkpt>
      <trkpt lat="48.24645" lon="2.6548">
        <ele>115.623</ele>
        <time>2017-12-16T18:03:15Z</time>
      </trkpt>
      <trkpt lat="48.24623" lon="2.65505">
        <ele>116.154</ele>
        <time>2017-12-16T18:04:55Z</time>
      </trkpt>
      <trkpt lat="48.24598" lon="2.65507">
        <ele>116.699</ele>
        <time>2017-12-16T18:06:30Z</time>
      </trkpt>
      <trkpt lat="48.24591" lon="2.65475">
        <ele>116.948</ele>
        <time>2017-12-16T18:06:56Z</time>
      </trkpt>
      <trkpt lat="48.24584" lon="2.65463">
        <ele>117.106</ele>
        <time>2017-12-16T18:07:08Z</time>
      </trkpt>
      <trkpt lat="48.2457" lon="2.65455">
        <ele>117.34</ele>
        <time>2017-12-16T18:07:23Z</time>
      </trkpt>
      <trkpt lat="48.24563" lon="2.65454">
        <ele>117.452</ele>
        <time>2017-12-16T18:07:29Z</time>
      </trkpt>
      <trkpt lat="48.24563" lon="2.65454">
        <ele>105.4</ele>
        <time>2017-12-16T18:07:34Z</time>
      </trkpt>
      <trkpt lat="48.24563" lon="2.65454">
        <ele>105.4</ele>
        <time>2017-12-16T18:07:40Z</time>
      </trkpt>
      <trkpt lat="48.24559" lon="2.65443">
        <ele>117.686</ele>
        <time>2017-12-16T18:07:40Z</time>
      </trkpt>
      <trkpt lat="48.2455" lon="2.65425">
        <ele>118.131</ele>
        <time>2017-12-16T18:08:01Z</time>
      </trkpt>
      <trkpt lat="48.24545" lon="2.65398">
        <ele>118.378</ele>
        <time>2017-12-16T18:08:10Z</time>
      </trkpt>
      <trkpt lat="48.24543" lon="2.65385">
        <ele>118.572</ele>
        <time>2017-12-16T18:08:16Z</time>
      </trkpt>
      <trkpt lat="48.24532" lon="2.65358">
        <ele>119.126</ele>
        <time>2017-12-16T18:08:31Z</time>
      </trkpt>
      <trkpt lat="48.24517" lon="2.65329">
        <ele>119.896</ele>
        <time>2017-12-16T18:08:48Z</time>
      </trkpt>
      <trkpt lat="48.24503" lon="2.65327">
        <ele>120.516</ele>
        <time>2017-12-16T18:09:00Z</time>
      </trkpt>
      <trkpt lat="48.24491" lon="2.65331">
        <ele>121.011</ele>
        <time>2017-12-16T18:09:09Z</time>
      </trkpt>
      <trkpt lat="48.24475" lon="2.65331">
        <ele>121.998</ele>
        <time>2017-12-16T18:09:24Z</time>
      </trkpt>
      <trkpt lat="48.24456" lon="2.65337">
        <ele>123.065</ele>
        <time>2017-12-16T18:09:36Z</time>
      </trkpt>
      <trkpt lat="48.24441" lon="2.65341">
        <ele>123.833</ele>
        <time>2017-12-16T18:09:44Z</time>
      </trkpt>
      <trkpt lat="48.24428" lon="2.65356">
        <ele>125.187</ele>
        <time>2017-12-16T18:09:55Z</time>
      </trkpt>
      <trkpt lat="48.24417" lon="2.65371">
        <ele>126.748</ele>
        <time>2017-12-16T18:10:06Z</time>
      </trkpt>
      <trkpt lat="48.24407" lon="2.65391">
        <ele>128.358</ele>
        <time>2017-12-16T18:10:17Z</time>
      </trkpt>
      <trkpt lat="48.24406" lon="2.65414">
        <ele>129.833</ele>
        <time>2017-12-16T18:10:27Z</time>
      </trkpt>
      <trkpt lat="48.24396" lon="2.65429">
        <ele>132.176</ele>
        <time>2017-12-16T18:10:42Z</time>
      </trkpt>
      <trkpt lat="48.24388" lon="2.65443">
        <ele>134.32</ele>
        <time>2017-12-16T18:10:53Z</time>
      </trkpt>
      <trkpt lat="48.24381" lon="2.6546">
        <ele>136.561</ele>
        <time>2017-12-16T18:11:05Z</time>
      </trkpt>
      <trkpt lat="48.24381" lon="2.6546">
        <ele>113.7</ele>
        <time>2017-12-16T18:11:12Z</time>
      </trkpt>
      <trkpt lat="48.24381" lon="2.6546">
        <ele>113.7</ele>
        <time>2017-12-16T18:11:17Z</time>
      </trkpt>
      <trkpt lat="48.24369" lon="2.65456">
        <ele>138.572</ele>
        <time>2017-12-16T18:11:17Z</time>
      </trkpt>
      <trkpt lat="48.24365" lon="2.6546">
        <ele>139.225</ele>
        <time>2017-12-16T18:11:21Z</time>
      </trkpt>
      <trkpt lat="48.24365" lon="2.6546">
        <ele>113.9</ele>
        <time>2017-12-16T18:11:28Z</time>
      </trkpt>
      <trkpt lat="48.24365" lon="2.6546">
        <ele>113.9</ele>
        <time>2017-12-16T18:12:34Z</time>
      </trkpt>
      <trkpt lat="48.24351" lon="2.65444">
        <ele>146.882</ele>
        <time>2017-12-16T18:12:34Z</time>
      </trkpt>
      <trkpt lat="48.24351" lon="2.65444">
        <ele>146.882</ele>
        <time>2017-12-16T18:12:41Z</time>
      </trkpt>
      <trkpt lat="48.24351" lon="2.65444">
        <ele>114</ele>
        <time>2017-12-16T18:12:41Z</time>
      </trkpt>
      <trkpt lat="48.24351" lon="2.65444">
        <ele>114</ele>
        <time>2017-12-16T18:12:51Z</time>
      </trkpt>
      <trkpt lat="48.24364" lon="2.65431">
        <ele>148.163</ele>
        <time>2017-12-16T18:12:51Z</time>
      </trkpt>
      <trkpt lat="48.24373" lon="2.65427">
        <ele>148.723</ele>
        <time>2017-12-16T18:13:00Z</time>
      </trkpt>
      <trkpt lat="48.24389" lon="2.65411">
        <ele>149.512</ele>
        <time>2017-12-16T18:13:16Z</time>
      </trkpt>
      <trkpt lat="48.24401" lon="2.65396">
        <ele>150.052</ele>
        <time>2017-12-16T18:13:29Z</time>
      </trkpt>
      <trkpt lat="48.24418" lon="2.65367">
        <ele>150.676</ele>
        <time>2017-12-16T18:13:48Z</time>
      </trkpt>
      <trkpt lat="48.24431" lon="2.65349">
        <ele>150.987</ele>
        <time>2017-12-16T18:14:01Z</time>
      </trkpt>
      <trkpt lat="48.2444" lon="2.65317">
        <ele>151.331</ele>
        <time>2017-12-16T18:14:18Z</time>
      </trkpt>
      <trkpt lat="48.2446" lon="2.65287">
        <ele>151.601</ele>
        <time>2017-12-16T18:14:34Z</time>
      </trkpt>
      <trkpt lat="48.24463" lon="2.65273">
        <ele>151.714</ele>
        <time>2017-12-16T18:14:44Z</time>
      </trkpt>
      <trkpt lat="48.24463" lon="2.65243">
        <ele>151.921</ele>
        <time>2017-12-16T18:14:57Z</time>
      </trkpt>
      <trkpt lat="48.24463" lon="2.65243">
        <ele>151.921</ele>
        <time>2017-12-16T18:15:04Z</time>
      </trkpt>
      <trkpt lat="48.24463" lon="2.65243">
        <ele>107.5</ele>
        <time>2017-12-16T18:15:04Z</time>
      </trkpt>
      <trkpt lat="48.24463" lon="2.65243">
        <ele>107.5</ele>
        <time>2017-12-16T18:16:01Z</time>
      </trkpt>
      <trkpt lat="48.24441" lon="2.65234">
        <ele>152.342</ele>
        <time>2017-12-16T18:16:01Z</time>
      </trkpt>
      <trkpt lat="48.24433" lon="2.65242">
        <ele>152.363</ele>
        <time>2017-12-16T18:16:08Z</time>
      </trkpt>
      <trkpt lat="48.24433" lon="2.65242">
        <ele>108</ele>
        <time>2017-12-16T18:16:14Z</time>
      </trkpt>
      <trkpt lat="48.24433" lon="2.65242">
        <ele>108</ele>
        <time>2017-12-16T18:16:19Z</time>
      </trkpt>
      <trkpt lat="48.24428" lon="2.65244">
        <ele>152.378</ele>
        <time>2017-12-16T18:16:19Z</time>
      </trkpt>
      <trkpt lat="48.24415" lon="2.65265">
        <ele>152.425</ele>
        <time>2017-12-16T18:16:35Z</time>
      </trkpt>
      <trkpt lat="48.24395" lon="2.65269">
        <ele>152.486</ele>
        <time>2017-12-16T18:16:51Z</time>
      </trkpt>
      <trkpt lat="48.24377" lon="2.65263">
        <ele>152.526</ele>
        <time>2017-12-16T18:17:04Z</time>
      </trkpt>
      <trkpt lat="48.2436" lon="2.65262">
        <ele>152.549</ele>
        <time>2017-12-16T18:17:16Z</time>
      </trkpt>
      <trkpt lat="48.24349" lon="2.65259">
        <ele>152.541</ele>
        <time>2017-12-16T18:17:24Z</time>
      </trkpt>
      <trkpt lat="48.2433" lon="2.65257">
        <ele>152.484</ele>
        <time>2017-12-16T18:17:37Z</time>
      </trkpt>
      <trkpt lat="48.24314" lon="2.6526">
        <ele>152.355</ele>
        <time>2017-12-16T18:17:48Z</time>
      </trkpt>
      <trkpt lat="48.24298" lon="2.6526">
        <ele>152.188</ele>
        <time>2017-12-16T18:18:00Z</time>
      </trkpt>
      <trkpt lat="48.24298" lon="2.6526">
        <ele>152.188</ele>
        <time>2017-12-16T18:18:07Z</time>
      </trkpt>
      <trkpt lat="48.24298" lon="2.6526">
        <ele>107.7</ele>
        <time>2017-12-16T18:18:07Z</time>
      </trkpt>
      <trkpt lat="48.24298" lon="2.6526">
        <ele>107.7</ele>
        <time>2017-12-16T18:18:18Z</time>
      </trkpt>
      <trkpt lat="48.24309" lon="2.65231">
        <ele>152.044</ele>
        <time>2017-12-16T18:18:18Z</time>
      </trkpt>
      <trkpt lat="48.24316" lon="2.65201">
        <ele>152.056</ele>
        <time>2017-12-16T18:18:32Z</time>
      </trkpt>
      <trkpt lat="48.24322" lon="2.65188">
        <ele>152.074</ele>
        <time>2017-12-16T18:18:40Z</time>
      </trkpt>
      <trkpt lat="48.2433" lon="2.6517">
        <ele>152.082</ele>
        <time>2017-12-16T18:18:50Z</time>
      </trkpt>
      <trkpt lat="48.24335" lon="2.65153">
        <ele>152.08</ele>
        <time>2017-12-16T18:18:57Z</time>
      </trkpt>
      <trkpt lat="48.24341" lon="2.65127">
        <ele>152.075</ele>
        <time>2017-12-16T18:19:10Z</time>
      </trkpt>
      <trkpt lat="48.24337" lon="2.65096">
        <ele>152.088</ele>
        <time>2017-12-16T18:19:24Z</time>
      </trkpt>
      <trkpt lat="48.24337" lon="2.65073">
        <ele>152.119</ele>
        <time>2017-12-16T18:19:35Z</time>
      </trkpt>
      <trkpt lat="48.24332" lon="2.65035">
        <ele>152.16</ele>
        <time>2017-12-16T18:19:53Z</time>
      </trkpt>
      <trkpt lat="48.24325" lon="2.65006">
        <ele>152.132</ele>
        <time>2017-12-16T18:20:06Z</time>
      </trkpt>
      <trkpt lat="48.24318" lon="2.64989">
        <ele>152.076</ele>
        <time>2017-12-16T18:20:16Z</time>
      </trkpt>
      <trkpt lat="48.24309" lon="2.64962">
        <ele>151.944</ele>
        <time>2017-12-16T18:20:31Z</time>
      </trkpt>
      <trkpt lat="48.2429" lon="2.64952">
        <ele>151.78</ele>
        <time>2017-12-16T18:20:46Z</time>
      </trkpt>
      <trkpt lat="48.24279" lon="2.64943">
        <ele>151.689</ele>
        <time>2017-12-16T18:20:54Z</time>
      </trkpt>
      <trkpt lat="48.24271" lon="2.64935">
        <ele>151.607</ele>
        <time>2017-12-16T18:21:02Z</time>
      </trkpt>
      <trkpt lat="48.24254" lon="2.6492">
        <ele>151.481</ele>
        <time>2017-12-16T18:21:16Z</time>
      </trkpt>
      <trkpt lat="48.2424" lon="2.64897">
        <ele>151.345</ele>
        <time>2017-12-16T18:21:34Z</time>
      </trkpt>
      <trkpt lat="48.24235" lon="2.64885">
        <ele>151.315</ele>
        <time>2017-12-16T18:21:40Z</time>
      </trkpt>
      <trkpt lat="48.24235" lon="2.64885">
        <ele>105.9</ele>
        <time>2017-12-16T18:21:48Z</time>
      </trkpt>
      <trkpt lat="48.24235" lon="2.64885">
        <ele>105.9</ele>
        <time>2017-12-16T18:21:56Z</time>
      </trkpt>
      <trkpt lat="48.24234" lon="2.64876">
        <ele>151.251</ele>
        <time>2017-12-16T18:21:56Z</time>
      </trkpt>
      <trkpt lat="48.24228" lon="2.64861">
        <ele>151.237</ele>
        <time>2017-12-16T18:22:04Z</time>
      </trkpt>
      <trkpt lat="48.24228" lon="2.64861">
        <ele>105.6</ele>
        <time>2017-12-16T18:22:11Z</time>
      </trkpt>
      <trkpt lat="48.24228" lon="2.64861">
        <ele>105.6</ele>
        <time>2017-12-16T18:22:19Z</time>
      </trkpt>
      <trkpt lat="48.24203" lon="2.6486">
        <ele>149.829</ele>
        <time>2017-12-16T18:23:29Z</time>
      </trkpt>
      <trkpt lat="48.24176" lon="2.64852">
        <ele>148.956</ele>
        <time>2017-12-16T18:23:47Z</time>
      </trkpt>
      <trkpt lat="48.24158" lon="2.64849">
        <ele>148.845</ele>
        <time>2017-12-16T18:24:02Z</time>
      </trkpt>
      <trkpt lat="48.24143" lon="2.64849">
        <ele>148.96</ele>
        <time>2017-12-16T18:24:13Z</time>
      </trkpt>
      <trkpt lat="48.24123" lon="2.64851">
        <ele>149.347</ele>
        <time>2017-12-16T18:24:27Z</time>
      </trkpt>
      <trkpt lat="48.24109" lon="2.64855">
        <ele>149.75</ele>
        <time>2017-12-16T18:24:38Z</time>
      </trkpt>
      <trkpt lat="48.24099" lon="2.64853">
        <ele>150.175</ele>
        <time>2017-12-16T18:24:51Z</time>
      </trkpt>
      <trkpt lat="48.24095" lon="2.64835">
        <ele>150.573</ele>
        <time>2017-12-16T18:25:03Z</time>
      </trkpt>
      <trkpt lat="48.24094" lon="2.64803">
        <ele>151.105</ele>
        <time>2017-12-16T18:25:19Z</time>
      </trkpt>
      <trkpt lat="48.24091" lon="2.64772">
        <ele>151.638</ele>
        <time>2017-12-16T18:25:34Z</time>
      </trkpt>
      <trkpt lat="48.24086" lon="2.64743">
        <ele>152.035</ele>
        <time>2017-12-16T18:25:47Z</time>
      </trkpt>
      <trkpt lat="48.24081" lon="2.64715">
        <ele>152.352</ele>
        <time>2017-12-16T18:26:00Z</time>
      </trkpt>
      <trkpt lat="48.24078" lon="2.64689">
        <ele>152.523</ele>
        <time>2017-12-16T18:26:10Z</time>
      </trkpt>
      <trkpt lat="48.24075" lon="2.64669">
        <ele>152.648</ele>
        <time>2017-12-16T18:26:18Z</time>
      </trkpt>
      <trkpt lat="48.24071" lon="2.64647">
        <ele>152.798</ele>
        <time>2017-12-16T18:26:31Z</time>
      </trkpt>
      <trkpt lat="48.24064" lon="2.64614">
        <ele>152.918</ele>
        <time>2017-12-16T18:26:46Z</time>
      </trkpt>
      <trkpt lat="48.24062" lon="2.64597">
        <ele>152.973</ele>
        <time>2017-12-16T18:26:54Z</time>
      </trkpt>
      <trkpt lat="48.24065" lon="2.64576">
        <ele>153.016</ele>
        <time>2017-12-16T18:27:05Z</time>
      </trkpt>
      <trkpt lat="48.24062" lon="2.64539">
        <ele>153.117</ele>
        <time>2017-12-16T18:27:22Z</time>
      </trkpt>
      <trkpt lat="48.24056" lon="2.64517">
        <ele>153.224</ele>
        <time>2017-12-16T18:27:33Z</time>
      </trkpt>
      <trkpt lat="48.24054" lon="2.64502">
        <ele>153.276</ele>
        <time>2017-12-16T18:27:40Z</time>
      </trkpt>
      <trkpt lat="48.24049" lon="2.64476">
        <ele>153.333</ele>
        <time>2017-12-16T18:27:51Z</time>
      </trkpt>
      <trkpt lat="48.24046" lon="2.64454">
        <ele>153.368</ele>
        <time>2017-12-16T18:28:03Z</time>
      </trkpt>
      <trkpt lat="48.24043" lon="2.64424">
        <ele>153.399</ele>
        <time>2017-12-16T18:28:15Z</time>
      </trkpt>
      <trkpt lat="48.24045" lon="2.64401">
        <ele>153.412</ele>
        <time>2017-12-16T18:28:26Z</time>
      </trkpt>
      <trkpt lat="48.24045" lon="2.64377">
        <ele>153.408</ele>
        <time>2017-12-16T18:28:38Z</time>
      </trkpt>
      <trkpt lat="48.24042" lon="2.64354">
        <ele>153.402</ele>
        <time>2017-12-16T18:28:50Z</time>
      </trkpt>
      <trkpt lat="48.24049" lon="2.64336">
        <ele>153.397</ele>
        <time>2017-12-16T18:29:02Z</time>
      </trkpt>
      <trkpt lat="48.24055" lon="2.64304">
        <ele>153.426</ele>
        <time>2017-12-16T18:29:21Z</time>
      </trkpt>
      <trkpt lat="48.2406" lon="2.64289">
        <ele>153.492</ele>
        <time>2017-12-16T18:29:30Z</time>
      </trkpt>
      <trkpt lat="48.24066" lon="2.64253">
        <ele>153.68</ele>
        <time>2017-12-16T18:29:47Z</time>
      </trkpt>
      <trkpt lat="48.24067" lon="2.64234">
        <ele>153.816</ele>
        <time>2017-12-16T18:29:58Z</time>
      </trkpt>
      <trkpt lat="48.24073" lon="2.64217">
        <ele>153.934</ele>
        <time>2017-12-16T18:30:06Z</time>
      </trkpt>
      <trkpt lat="48.24077" lon="2.6419">
        <ele>154.103</ele>
        <time>2017-12-16T18:30:18Z</time>
      </trkpt>
      <trkpt lat="48.2409" lon="2.64178">
        <ele>154.203</ele>
        <time>2017-12-16T18:30:27Z</time>
      </trkpt>
      <trkpt lat="48.24097" lon="2.64157">
        <ele>154.3</ele>
        <time>2017-12-16T18:30:38Z</time>
      </trkpt>
      <trkpt lat="48.2411" lon="2.64128">
        <ele>154.381</ele>
        <time>2017-12-16T18:30:54Z</time>
      </trkpt>
      <trkpt lat="48.2412" lon="2.64101">
        <ele>154.412</ele>
        <time>2017-12-16T18:31:08Z</time>
      </trkpt>
      <trkpt lat="48.24125" lon="2.64072">
        <ele>154.382</ele>
        <time>2017-12-16T18:31:22Z</time>
      </trkpt>
      <trkpt lat="48.2413" lon="2.64045">
        <ele>154.255</ele>
        <time>2017-12-16T18:31:35Z</time>
      </trkpt>
      <trkpt lat="48.24144" lon="2.64015">
        <ele>153.988</ele>
        <time>2017-12-16T18:31:51Z</time>
      </trkpt>
      <trkpt lat="48.24154" lon="2.63999">
        <ele>153.831</ele>
        <time>2017-12-16T18:32:01Z</time>
      </trkpt>
      <trkpt lat="48.24164" lon="2.63993">
        <ele>153.735</ele>
        <time>2017-12-16T18:32:08Z</time>
      </trkpt>
      <trkpt lat="48.24187" lon="2.63999">
        <ele>153.53</ele>
        <time>2017-12-16T18:32:23Z</time>
      </trkpt>
      <trkpt lat="48.24209" lon="2.63995">
        <ele>153.359</ele>
        <time>2017-12-16T18:32:37Z</time>
      </trkpt>
      <trkpt lat="48.24234" lon="2.63995">
        <ele>153.256</ele>
        <time>2017-12-16T18:32:48Z</time>
      </trkpt>
      <trkpt lat="48.24246" lon="2.63985">
        <ele>153.169</ele>
        <time>2017-12-16T18:32:59Z</time>
      </trkpt>
      <trkpt lat="48.24254" lon="2.6395">
        <ele>153.024</ele>
        <time>2017-12-16T18:33:16Z</time>
      </trkpt>
      <trkpt lat="48.24256" lon="2.6393">
        <ele>152.928</ele>
        <time>2017-12-16T18:33:28Z</time>
      </trkpt>
      <trkpt lat="48.2425" lon="2.63911">
        <ele>152.844</ele>
        <time>2017-12-16T18:33:40Z</time>
      </trkpt>
      <trkpt lat="48.24248" lon="2.63897">
        <ele>152.775</ele>
        <time>2017-12-16T18:33:48Z</time>
      </trkpt>
      <trkpt lat="48.24237" lon="2.63869">
        <ele>152.644</ele>
        <time>2017-12-16T18:34:02Z</time>
      </trkpt>
      <trkpt lat="48.2422" lon="2.63852">
        <ele>152.499</ele>
        <time>2017-12-16T18:34:18Z</time>
      </trkpt>
      <trkpt lat="48.2421" lon="2.63842">
        <ele>152.415</ele>
        <time>2017-12-16T18:34:27Z</time>
      </trkpt>
      <trkpt lat="48.24201" lon="2.6384">
        <ele>152.342</ele>
        <time>2017-12-16T18:34:35Z</time>
      </trkpt>
      <trkpt lat="48.24201" lon="2.6384">
        <ele>100.6</ele>
        <time>2017-12-16T18:34:41Z</time>
      </trkpt>
      <trkpt lat="48.24201" lon="2.6384">
        <ele>100.6</ele>
        <time>2017-12-16T18:35:14Z</time>
      </trkpt>
      <trkpt lat="48.24188" lon="2.63825">
        <ele>152.108</ele>
        <time>2017-12-16T18:35:14Z</time>
      </trkpt>
      <trkpt lat="48.24175" lon="2.63816">
        <ele>151.913</ele>
        <time>2017-12-16T18:35:26Z</time>
      </trkpt>
      <trkpt lat="48.2417" lon="2.63814">
        <ele>151.817</ele>
        <time>2017-12-16T18:35:31Z</time>
      </trkpt>
      <trkpt lat="48.2417" lon="2.63814">
        <ele>96.9</ele>
        <time>2017-12-16T18:35:37Z</time>
      </trkpt>
      <trkpt lat="48.2417" lon="2.63814">
        <ele>96.9</ele>
        <time>2017-12-16T18:36:05Z</time>
      </trkpt>
      <trkpt lat="48.24158" lon="2.63794">
        <ele>151.252</ele>
        <time>2017-12-16T18:36:05Z</time>
      </trkpt>
      <trkpt lat="48.24153" lon="2.63791">
        <ele>151.145</ele>
        <time>2017-12-16T18:36:09Z</time>
      </trkpt>
      <trkpt lat="48.24153" lon="2.63791">
        <ele>95.1</ele>
        <time>2017-12-16T18:36:16Z</time>
      </trkpt>
      <trkpt lat="48.24153" lon="2.63791">
        <ele>95.1</ele>
        <time>2017-12-16T18:36:20Z</time>
      </trkpt>
      <trkpt lat="48.24148" lon="2.63783">
        <ele>150.933</ele>
        <time>2017-12-16T18:36:20Z</time>
      </trkpt>
      <trkpt lat="48.24146" lon="2.63781">
        <ele>150.855</ele>
        <time>2017-12-16T18:36:23Z</time>
      </trkpt>
      <trkpt lat="48.24146" lon="2.63781">
        <ele>94.2</ele>
        <time>2017-12-16T18:36:28Z</time>
      </trkpt>
      <trkpt lat="48.24146" lon="2.63781">
        <ele>94.2</ele>
        <time>2017-12-16T18:39:12Z</time>
      </trkpt>
      <trkpt lat="48.24136" lon="2.63765">
        <ele>147.158</ele>
        <time>2017-12-16T18:39:12Z</time>
      </trkpt>
      <trkpt lat="48.24125" lon="2.63727">
        <ele>145.864</ele>
        <time>2017-12-16T18:40:01Z</time>
      </trkpt>
      <trkpt lat="48.24116" lon="2.63704">
        <ele>145.513</ele>
        <time>2017-12-16T18:40:13Z</time>
      </trkpt>
      <trkpt lat="48.24112" lon="2.63693">
        <ele>145.294</ele>
        <time>2017-12-16T18:40:21Z</time>
      </trkpt>
      <trkpt lat="48.24109" lon="2.63686">
        <ele>145.137</ele>
        <time>2017-12-16T18:40:27Z</time>
      </trkpt>
      <trkpt lat="48.24109" lon="2.63686">
        <ele>90.4</ele>
        <time>2017-12-16T18:40:34Z</time>
      </trkpt>
      <trkpt lat="48.24109" lon="2.63686">
        <ele>90.4</ele>
        <time>2017-12-16T18:41:40Z</time>
      </trkpt>
      <trkpt lat="48.24123" lon="2.63648">
        <ele>144.074</ele>
        <time>2017-12-16T18:41:40Z</time>
      </trkpt>
      <trkpt lat="48.24123" lon="2.63648">
        <ele>144.074</ele>
        <time>2017-12-16T18:41:47Z</time>
      </trkpt>
      <trkpt lat="48.24123" lon="2.63648">
        <ele>89.7</ele>
        <time>2017-12-16T18:41:47Z</time>
      </trkpt>
      <trkpt lat="48.24123" lon="2.63648">
        <ele>89.7</ele>
        <time>2017-12-16T18:41:59Z</time>
      </trkpt>
      <trkpt lat="48.2412" lon="2.63627">
        <ele>143.804</ele>
        <time>2017-12-16T18:41:59Z</time>
      </trkpt>
      <trkpt lat="48.24115" lon="2.63623">
        <ele>143.714</ele>
        <time>2017-12-16T18:42:04Z</time>
      </trkpt>
      <trkpt lat="48.24115" lon="2.63623">
        <ele>89.8</ele>
        <time>2017-12-16T18:42:11Z</time>
      </trkpt>
      <trkpt lat="48.24115" lon="2.63623">
        <ele>89.8</ele>
        <time>2017-12-16T18:44:05Z</time>
      </trkpt>
      <trkpt lat="48.24143" lon="2.63601">
        <ele>142.433</ele>
        <time>2017-12-16T18:44:05Z</time>
      </trkpt>
      <trkpt lat="48.2415" lon="2.63592">
        <ele>142.345</ele>
        <time>2017-12-16T18:44:13Z</time>
      </trkpt>
      <trkpt lat="48.2415" lon="2.63592">
        <ele>89</ele>
        <time>2017-12-16T18:44:20Z</time>
      </trkpt>
      <trkpt lat="48.2415" lon="2.63592">
        <ele>89</ele>
        <time>2017-12-16T18:44:39Z</time>
      </trkpt>
      <trkpt lat="48.24162" lon="2.6357">
        <ele>142.101</ele>
        <time>2017-12-16T18:44:39Z</time>
      </trkpt>
      <trkpt lat="48.24162" lon="2.6357">
        <ele>142.101</ele>
        <time>2017-12-16T18:44:48Z</time>
      </trkpt>
      <trkpt lat="48.24162" lon="2.6357">
        <ele>89.5</ele>
        <time>2017-12-16T18:44:48Z</time>
      </trkpt>
      <trkpt lat="48.24162" lon="2.6357">
        <ele>89.5</ele>
        <time>2017-12-16T18:45:33Z</time>
      </trkpt>
      <trkpt lat="48.24187" lon="2.63557">
        <ele>141.529</ele>
        <time>2017-12-16T18:45:33Z</time>
      </trkpt>
      <trkpt lat="48.242" lon="2.63559">
        <ele>141.369</ele>
        <time>2017-12-16T18:45:44Z</time>
      </trkpt>
      <trkpt lat="48.24215" lon="2.63563">
        <ele>141.229</ele>
        <time>2017-12-16T18:45:57Z</time>
      </trkpt>
      <trkpt lat="48.24228" lon="2.63565">
        <ele>141.148</ele>
        <time>2017-12-16T18:46:05Z</time>
      </trkpt>
      <trkpt lat="48.24237" lon="2.63573">
        <ele>141.06</ele>
        <time>2017-12-16T18:46:14Z</time>
      </trkpt>
      <trkpt lat="48.24248" lon="2.63598">
        <ele>140.888</ele>
        <time>2017-12-16T18:46:30Z</time>
      </trkpt>
      <trkpt lat="48.24263" lon="2.63622">
        <ele>140.695</ele>
        <time>2017-12-16T18:46:45Z</time>
      </trkpt>
      <trkpt lat="48.24269" lon="2.63641">
        <ele>140.533</ele>
        <time>2017-12-16T18:46:56Z</time>
      </trkpt>
      <trkpt lat="48.24277" lon="2.63661">
        <ele>140.34</ele>
        <time>2017-12-16T18:47:09Z</time>
      </trkpt>
      <trkpt lat="48.24281" lon="2.63663">
        <ele>140.262</ele>
        <time>2017-12-16T18:47:14Z</time>
      </trkpt>
      <trkpt lat="48.24281" lon="2.63663">
        <ele>92.9</ele>
        <time>2017-12-16T18:47:21Z</time>
      </trkpt>
      <trkpt lat="48.24281" lon="2.63663">
        <ele>92.9</ele>
        <time>2017-12-16T18:47:27Z</time>
      </trkpt>
      <trkpt lat="48.2429" lon="2.63668">
        <ele>140.1</ele>
        <time>2017-12-16T18:47:27Z</time>
      </trkpt>
      <trkpt lat="48.24293" lon="2.6369">
        <ele>139.952</ele>
        <time>2017-12-16T18:47:40Z</time>
      </trkpt>
      <trkpt lat="48.24304" lon="2.63711">
        <ele>139.761</ele>
        <time>2017-12-16T18:47:56Z</time>
      </trkpt>
      <trkpt lat="48.24313" lon="2.63723">
        <ele>139.683</ele>
        <time>2017-12-16T18:48:11Z</time>
      </trkpt>
      <trkpt lat="48.24332" lon="2.63738">
        <ele>139.635</ele>
        <time>2017-12-16T18:48:26Z</time>
      </trkpt>
      <trkpt lat="48.24339" lon="2.63749">
        <ele>139.605</ele>
        <time>2017-12-16T18:48:34Z</time>
      </trkpt>
      <trkpt lat="48.24356" lon="2.63775">
        <ele>139.547</ele>
        <time>2017-12-16T18:48:46Z</time>
      </trkpt>
      <trkpt lat="48.24367" lon="2.63785">
        <ele>139.5</ele>
        <time>2017-12-16T18:48:57Z</time>
      </trkpt>
      <trkpt lat="48.24386" lon="2.63803">
        <ele>139.452</ele>
        <time>2017-12-16T18:49:10Z</time>
      </trkpt>
      <trkpt lat="48.24406" lon="2.63824">
        <ele>139.406</ele>
        <time>2017-12-16T18:49:27Z</time>
      </trkpt>
      <trkpt lat="48.24413" lon="2.63843">
        <ele>139.362</ele>
        <time>2017-12-16T18:49:43Z</time>
      </trkpt>
      <trkpt lat="48.24425" lon="2.63856">
        <ele>139.339</ele>
        <time>2017-12-16T18:49:51Z</time>
      </trkpt>
      <trkpt lat="48.24432" lon="2.63871">
        <ele>139.304</ele>
        <time>2017-12-16T18:50:03Z</time>
      </trkpt>
      <trkpt lat="48.24432" lon="2.63871">
        <ele>139.304</ele>
        <time>2017-12-16T18:50:11Z</time>
      </trkpt>
      <trkpt lat="48.24432" lon="2.63871">
        <ele>89.3</ele>
        <time>2017-12-16T18:50:11Z</time>
      </trkpt>
      <trkpt lat="48.24432" lon="2.63871">
        <ele>89.3</ele>
        <time>2017-12-16T18:50:20Z</time>
      </trkpt>
      <trkpt lat="48.2444" lon="2.63836">
        <ele>139.281</ele>
        <time>2017-12-16T18:50:20Z</time>
      </trkpt>
      <trkpt lat="48.2444" lon="2.63808">
        <ele>139.268</ele>
        <time>2017-12-16T18:50:35Z</time>
      </trkpt>
      <trkpt lat="48.24436" lon="2.63782">
        <ele>139.259</ele>
        <time>2017-12-16T18:50:48Z</time>
      </trkpt>
      <trkpt lat="48.24439" lon="2.63762">
        <ele>139.238</ele>
        <time>2017-12-16T18:51:02Z</time>
      </trkpt>
      <trkpt lat="48.24449" lon="2.6372">
        <ele>139.216</ele>
        <time>2017-12-16T18:51:18Z</time>
      </trkpt>
      <trkpt lat="48.24449" lon="2.6369">
        <ele>139.213</ele>
        <time>2017-12-16T18:51:30Z</time>
      </trkpt>
      <trkpt lat="48.24453" lon="2.63653">
        <ele>139.182</ele>
        <time>2017-12-16T18:51:47Z</time>
      </trkpt>
      <trkpt lat="48.24459" lon="2.63614">
        <ele>139.133</ele>
        <time>2017-12-16T18:51:59Z</time>
      </trkpt>
      <trkpt lat="48.24462" lon="2.63591">
        <ele>139.09</ele>
        <time>2017-12-16T18:52:11Z</time>
      </trkpt>
      <trkpt lat="48.24437" lon="2.63584">
        <ele>139.016</ele>
        <time>2017-12-16T18:52:31Z</time>
      </trkpt>
      <trkpt lat="48.24417" lon="2.6357">
        <ele>138.984</ele>
        <time>2017-12-16T18:52:47Z</time>
      </trkpt>
      <trkpt lat="48.24395" lon="2.63567">
        <ele>138.969</ele>
        <time>2017-12-16T18:53:05Z</time>
      </trkpt>
      <trkpt lat="48.24373" lon="2.63572">
        <ele>138.969</ele>
        <time>2017-12-16T18:53:21Z</time>
      </trkpt>
      <trkpt lat="48.24352" lon="2.6357">
        <ele>138.967</ele>
        <time>2017-12-16T18:53:37Z</time>
      </trkpt>
      <trkpt lat="48.24333" lon="2.63559">
        <ele>138.981</ele>
        <time>2017-12-16T18:53:52Z</time>
      </trkpt>
      <trkpt lat="48.24324" lon="2.63553">
        <ele>138.999</ele>
        <time>2017-12-16T18:54:00Z</time>
      </trkpt>
      <trkpt lat="48.24308" lon="2.63545">
        <ele>139.057</ele>
        <time>2017-12-16T18:54:17Z</time>
      </trkpt>
      <trkpt lat="48.24282" lon="2.63522">
        <ele>139.141</ele>
        <time>2017-12-16T18:54:33Z</time>
      </trkpt>
      <trkpt lat="48.2427" lon="2.63518">
        <ele>139.223</ele>
        <time>2017-12-16T18:54:47Z</time>
      </trkpt>
      <trkpt lat="48.24249" lon="2.63508">
        <ele>139.315</ele>
        <time>2017-12-16T18:55:03Z</time>
      </trkpt>
      <trkpt lat="48.24228" lon="2.63504">
        <ele>139.456</ele>
        <time>2017-12-16T18:55:20Z</time>
      </trkpt>
      <trkpt lat="48.24215" lon="2.63497">
        <ele>139.606</ele>
        <time>2017-12-16T18:55:31Z</time>
      </trkpt>
      <trkpt lat="48.242" lon="2.63493">
        <ele>139.77</ele>
        <time>2017-12-16T18:55:40Z</time>
      </trkpt>
      <trkpt lat="48.24182" lon="2.63486">
        <ele>140.101</ele>
        <time>2017-12-16T18:55:55Z</time>
      </trkpt>
      <trkpt lat="48.24164" lon="2.63482">
        <ele>140.429</ele>
        <time>2017-12-16T18:56:09Z</time>
      </trkpt>
      <trkpt lat="48.24152" lon="2.63482">
        <ele>140.613</ele>
        <time>2017-12-16T18:56:17Z</time>
      </trkpt>
      <trkpt lat="48.24142" lon="2.63482">
        <ele>140.769</ele>
        <time>2017-12-16T18:56:24Z</time>
      </trkpt>
      <trkpt lat="48.24124" lon="2.63475">
        <ele>141.054</ele>
        <time>2017-12-16T18:56:36Z</time>
      </trkpt>
      <trkpt lat="48.24113" lon="2.63471">
        <ele>141.226</ele>
        <time>2017-12-16T18:56:43Z</time>
      </trkpt>
      <trkpt lat="48.24095" lon="2.63467">
        <ele>141.513</ele>
        <time>2017-12-16T18:56:55Z</time>
      </trkpt>
      <trkpt lat="48.24077" lon="2.63462">
        <ele>141.819</ele>
        <time>2017-12-16T18:57:08Z</time>
      </trkpt>
      <trkpt lat="48.24064" lon="2.63459">
        <ele>142.072</ele>
        <time>2017-12-16T18:57:19Z</time>
      </trkpt>
      <trkpt lat="48.24046" lon="2.63453">
        <ele>142.308</ele>
        <time>2017-12-16T18:57:31Z</time>
      </trkpt>
      <trkpt lat="48.24031" lon="2.63449">
        <ele>142.538</ele>
        <time>2017-12-16T18:57:44Z</time>
      </trkpt>
      <trkpt lat="48.24006" lon="2.63443">
        <ele>142.815</ele>
        <time>2017-12-16T18:58:02Z</time>
      </trkpt>
      <trkpt lat="48.23986" lon="2.63439">
        <ele>142.991</ele>
        <time>2017-12-16T18:58:15Z</time>
      </trkpt>
      <trkpt lat="48.23966" lon="2.63435">
        <ele>143.168</ele>
        <time>2017-12-16T18:58:28Z</time>
      </trkpt>
      <trkpt lat="48.23953" lon="2.63433">
        <ele>143.311</ele>
        <time>2017-12-16T18:58:38Z</time>
      </trkpt>
      <trkpt lat="48.2394" lon="2.63431">
        <ele>143.432</ele>
        <time>2017-12-16T18:58:46Z</time>
      </trkpt>
      <trkpt lat="48.23918" lon="2.63428">
        <ele>143.633</ele>
        <time>2017-12-16T18:59:00Z</time>
      </trkpt>
      <trkpt lat="48.23905" lon="2.63423">
        <ele>143.774</ele>
        <time>2017-12-16T18:59:10Z</time>
      </trkpt>
      <trkpt lat="48.23886" lon="2.6342">
        <ele>143.992</ele>
        <time>2017-12-16T18:59:24Z</time>
      </trkpt>
      <trkpt lat="48.23876" lon="2.63417">
        <ele>144.106</ele>
        <time>2017-12-16T18:59:31Z</time>
      </trkpt>
      <trkpt lat="48.2386" lon="2.63416">
        <ele>144.333</ele>
        <time>2017-12-16T18:59:44Z</time>
      </trkpt>
      <trkpt lat="48.23841" lon="2.63412">
        <ele>144.578</ele>
        <time>2017-12-16T18:59:58Z</time>
      </trkpt>
      <trkpt lat="48.2382" lon="2.63407">
        <ele>144.883</ele>
        <time>2017-12-16T19:00:14Z</time>
      </trkpt>
      <trkpt lat="48.23804" lon="2.63406">
        <ele>145.174</ele>
        <time>2017-12-16T19:00:29Z</time>
      </trkpt>
      <trkpt lat="48.23786" lon="2.63401">
        <ele>145.507</ele>
        <time>2017-12-16T19:00:45Z</time>
      </trkpt>
      <trkpt lat="48.23773" lon="2.63397">
        <ele>145.76</ele>
        <time>2017-12-16T19:00:56Z</time>
      </trkpt>
      <trkpt lat="48.23751" lon="2.63387">
        <ele>146.189</ele>
        <time>2017-12-16T19:01:15Z</time>
      </trkpt>
      <trkpt lat="48.23735" lon="2.63385">
        <ele>146.504</ele>
        <time>2017-12-16T19:01:30Z</time>
      </trkpt>
      <trkpt lat="48.23724" lon="2.63382">
        <ele>146.774</ele>
        <time>2017-12-16T19:01:43Z</time>
      </trkpt>
      <trkpt lat="48.23705" lon="2.6338">
        <ele>147.149</ele>
        <time>2017-12-16T19:01:59Z</time>
      </trkpt>
      <trkpt lat="48.23689" lon="2.63377">
        <ele>147.624</ele>
        <time>2017-12-16T19:02:17Z</time>
      </trkpt>
      <trkpt lat="48.23679" lon="2.63377">
        <ele>147.848</ele>
        <time>2017-12-16T19:02:25Z</time>
      </trkpt>
      <trkpt lat="48.23661" lon="2.63372">
        <ele>148.276</ele>
        <time>2017-12-16T19:02:41Z</time>
      </trkpt>
      <trkpt lat="48.23644" lon="2.63365">
        <ele>148.645</ele>
        <time>2017-12-16T19:02:55Z</time>
      </trkpt>
      <trkpt lat="48.23626" lon="2.63364">
        <ele>149.006</ele>
        <time>2017-12-16T19:03:09Z</time>
      </trkpt>
      <trkpt lat="48.23615" lon="2.6336">
        <ele>149.235</ele>
        <time>2017-12-16T19:03:18Z</time>
      </trkpt>
      <trkpt lat="48.23597" lon="2.63358">
        <ele>149.606</ele>
        <time>2017-12-16T19:03:32Z</time>
      </trkpt>
      <trkpt lat="48.23581" lon="2.63359">
        <ele>149.946</ele>
        <time>2017-12-16T19:03:45Z</time>
      </trkpt>
      <trkpt lat="48.23566" lon="2.63359">
        <ele>150.253</ele>
        <time>2017-12-16T19:03:58Z</time>
      </trkpt>
      <trkpt lat="48.23547" lon="2.63358">
        <ele>150.556</ele>
        <time>2017-12-16T19:04:12Z</time>
      </trkpt>
      <trkpt lat="48.23533" lon="2.63355">
        <ele>150.797</ele>
        <time>2017-12-16T19:04:23Z</time>
      </trkpt>
      <trkpt lat="48.23513" lon="2.63354">
        <ele>151.208</ele>
        <time>2017-12-16T19:04:41Z</time>
      </trkpt>
      <trkpt lat="48.23495" lon="2.63349">
        <ele>151.632</ele>
        <time>2017-12-16T19:04:58Z</time>
      </trkpt>
      <trkpt lat="48.23471" lon="2.6334">
        <ele>152.065</ele>
        <time>2017-12-16T19:05:15Z</time>
      </trkpt>
      <trkpt lat="48.23451" lon="2.63335">
        <ele>152.429</ele>
        <time>2017-12-16T19:05:29Z</time>
      </trkpt>
      <trkpt lat="48.23436" lon="2.63319">
        <ele>152.748</ele>
        <time>2017-12-16T19:05:42Z</time>
      </trkpt>
      <trkpt lat="48.2343" lon="2.633">
        <ele>152.951</ele>
        <time>2017-12-16T19:05:52Z</time>
      </trkpt>
      <trkpt lat="48.23428" lon="2.63287">
        <ele>153.08</ele>
        <time>2017-12-16T19:06:00Z</time>
      </trkpt>
      <trkpt lat="48.23428" lon="2.63287">
        <ele>114</ele>
        <time>2017-12-16T19:06:07Z</time>
      </trkpt>
      <trkpt lat="48.23428" lon="2.63287">
        <ele>114</ele>
        <time>2017-12-16T19:06:11Z</time>
      </trkpt>
      <trkpt lat="48.23425" lon="2.63273">
        <ele>153.22</ele>
        <time>2017-12-16T19:06:11Z</time>
      </trkpt>
      <trkpt lat="48.23428" lon="2.63247">
        <ele>153.346</ele>
        <time>2017-12-16T19:06:24Z</time>
      </trkpt>
      <trkpt lat="48.23432" lon="2.63226">
        <ele>153.431</ele>
        <time>2017-12-16T19:06:36Z</time>
      </trkpt>
      <trkpt lat="48.23437" lon="2.63198">
        <ele>153.497</ele>
        <time>2017-12-16T19:06:51Z</time>
      </trkpt>
      <trkpt lat="48.23443" lon="2.63162">
        <ele>153.569</ele>
        <time>2017-12-16T19:07:07Z</time>
      </trkpt>
      <trkpt lat="48.23446" lon="2.63134">
        <ele>153.654</ele>
        <time>2017-12-16T19:07:20Z</time>
      </trkpt>
      <trkpt lat="48.2345" lon="2.63107">
        <ele>153.738</ele>
        <time>2017-12-16T19:07:33Z</time>
      </trkpt>
      <trkpt lat="48.23447" lon="2.63086">
        <ele>153.797</ele>
        <time>2017-12-16T19:07:43Z</time>
      </trkpt>
      <trkpt lat="48.23442" lon="2.63056">
        <ele>153.857</ele>
        <time>2017-12-16T19:07:58Z</time>
      </trkpt>
      <trkpt lat="48.23438" lon="2.63031">
        <ele>153.91</ele>
        <time>2017-12-16T19:08:09Z</time>
      </trkpt>
      <trkpt lat="48.23434" lon="2.63014">
        <ele>153.961</ele>
        <time>2017-12-16T19:08:17Z</time>
      </trkpt>
      <trkpt lat="48.23429" lon="2.62994">
        <ele>154.012</ele>
        <time>2017-12-16T19:08:27Z</time>
      </trkpt>
      <trkpt lat="48.23421" lon="2.62963">
        <ele>154.062</ele>
        <time>2017-12-16T19:08:42Z</time>
      </trkpt>
      <trkpt lat="48.23414" lon="2.62941">
        <ele>154.079</ele>
        <time>2017-12-16T19:08:54Z</time>
      </trkpt>
      <trkpt lat="48.23408" lon="2.62919">
        <ele>154.098</ele>
        <time>2017-12-16T19:09:05Z</time>
      </trkpt>
      <trkpt lat="48.23396" lon="2.62893">
        <ele>154.123</ele>
        <time>2017-12-16T19:09:18Z</time>
      </trkpt>
      <trkpt lat="48.23385" lon="2.6287">
        <ele>154.168</ele>
        <time>2017-12-16T19:09:32Z</time>
      </trkpt>
      <trkpt lat="48.23373" lon="2.62843">
        <ele>154.21</ele>
        <time>2017-12-16T19:09:47Z</time>
      </trkpt>
      <trkpt lat="48.23368" lon="2.62835">
        <ele>154.22</ele>
        <time>2017-12-16T19:09:55Z</time>
      </trkpt>
      <trkpt lat="48.23368" lon="2.62835">
        <ele>115.3</ele>
        <time>2017-12-16T19:10:03Z</time>
      </trkpt>
      <trkpt lat="48.23368" lon="2.62835">
        <ele>115.3</ele>
        <time>2017-12-16T19:10:08Z</time>
      </trkpt>
      <trkpt lat="48.23371" lon="2.62826">
        <ele>154.228</ele>
        <time>2017-12-16T19:10:08Z</time>
      </trkpt>
      <trkpt lat="48.23376" lon="2.62804">
        <ele>154.233</ele>
        <time>2017-12-16T19:10:20Z</time>
      </trkpt>
      <trkpt lat="48.2338" lon="2.62784">
        <ele>154.236</ele>
        <time>2017-12-16T19:10:31Z</time>
      </trkpt>
      <trkpt lat="48.23388" lon="2.62753">
        <ele>154.227</ele>
        <time>2017-12-16T19:10:45Z</time>
      </trkpt>
      <trkpt lat="48.23389" lon="2.62723">
        <ele>154.231</ele>
        <time>2017-12-16T19:10:58Z</time>
      </trkpt>
      <trkpt lat="48.23384" lon="2.62687">
        <ele>154.262</ele>
        <time>2017-12-16T19:11:16Z</time>
      </trkpt>
      <trkpt lat="48.23376" lon="2.62652">
        <ele>154.318</ele>
        <time>2017-12-16T19:11:33Z</time>
      </trkpt>
      <trkpt lat="48.23369" lon="2.62631">
        <ele>154.376</ele>
        <time>2017-12-16T19:11:44Z</time>
      </trkpt>
      <trkpt lat="48.23362" lon="2.62605">
        <ele>154.441</ele>
        <time>2017-12-16T19:11:57Z</time>
      </trkpt>
      <trkpt lat="48.23358" lon="2.62586">
        <ele>154.49</ele>
        <time>2017-12-16T19:12:07Z</time>
      </trkpt>
      <trkpt lat="48.23351" lon="2.62564">
        <ele>154.565</ele>
        <time>2017-12-16T19:12:18Z</time>
      </trkpt>
      <trkpt lat="48.23342" lon="2.62536">
        <ele>154.678</ele>
        <time>2017-12-16T19:12:30Z</time>
      </trkpt>
      <trkpt lat="48.23335" lon="2.62515">
        <ele>154.809</ele>
        <time>2017-12-16T19:12:41Z</time>
      </trkpt>
      <trkpt lat="48.2333" lon="2.62508">
        <ele>154.895</ele>
        <time>2017-12-16T19:12:48Z</time>
      </trkpt>
      <trkpt lat="48.2333" lon="2.62508">
        <ele>116.2</ele>
        <time>2017-12-16T19:12:56Z</time>
      </trkpt>
      <trkpt lat="48.2333" lon="2.62508">
        <ele>116.2</ele>
        <time>2017-12-16T19:13:00Z</time>
      </trkpt>
      <trkpt lat="48.23323" lon="2.62503">
        <ele>155.001</ele>
        <time>2017-12-16T19:13:00Z</time>
      </trkpt>
      <trkpt lat="48.23314" lon="2.62494">
        <ele>155.069</ele>
        <time>2017-12-16T19:13:07Z</time>
      </trkpt>
      <trkpt lat="48.23301" lon="2.62482">
        <ele>155.161</ele>
        <time>2017-12-16T19:13:18Z</time>
      </trkpt>
      <trkpt lat="48.23295" lon="2.62455">
        <ele>155.275</ele>
        <time>2017-12-16T19:13:34Z</time>
      </trkpt>
      <trkpt lat="48.23296" lon="2.62426">
        <ele>155.347</ele>
        <time>2017-12-16T19:13:46Z</time>
      </trkpt>
      <trkpt lat="48.23298" lon="2.62397">
        <ele>155.413</ele>
        <time>2017-12-16T19:13:59Z</time>
      </trkpt>
      <trkpt lat="48.23303" lon="2.62377">
        <ele>155.434</ele>
        <time>2017-12-16T19:14:11Z</time>
      </trkpt>
      <trkpt lat="48.23315" lon="2.62348">
        <ele>155.416</ele>
        <time>2017-12-16T19:14:28Z</time>
      </trkpt>
      <trkpt lat="48.23306" lon="2.62335">
        <ele>155.376</ele>
        <time>2017-12-16T19:14:41Z</time>
      </trkpt>
      <trkpt lat="48.23283" lon="2.62331">
        <ele>155.331</ele>
        <time>2017-12-16T19:14:58Z</time>
      </trkpt>
      <trkpt lat="48.23266" lon="2.62323">
        <ele>155.308</ele>
        <time>2017-12-16T19:15:11Z</time>
      </trkpt>
      <trkpt lat="48.23253" lon="2.6232">
        <ele>155.295</ele>
        <time>2017-12-16T19:15:20Z</time>
      </trkpt>
      <trkpt lat="48.23232" lon="2.62316">
        <ele>155.272</ele>
        <time>2017-12-16T19:15:34Z</time>
      </trkpt>
      <trkpt lat="48.23215" lon="2.62316">
        <ele>155.24</ele>
        <time>2017-12-16T19:15:49Z</time>
      </trkpt>
      <trkpt lat="48.23209" lon="2.62333">
        <ele>155.208</ele>
        <time>2017-12-16T19:15:59Z</time>
      </trkpt>
      <trkpt lat="48.23209" lon="2.62333">
        <ele>113.5</ele>
        <time>2017-12-16T19:16:06Z</time>
      </trkpt>
      <trkpt lat="48.23209" lon="2.62333">
        <ele>113.5</ele>
        <time>2017-12-16T19:16:09Z</time>
      </trkpt>
    </trkseg>
  </trk>
</gpx>